M I D A S
Marine Information and Data Acquisition System
Tripno 1126 of the Zeeleeuw from 2006-06-07 04:01:00 to 2006-06-07 13:57:39
Back to CruiseResearch ActivitiesStationsMapUnderway DataData graphs

EquipmentUnitsComment
TimeDGPSUTC
LatitudeDGPSDM.mWGS84
LongitudeDGPSDM.mWGS84
TemperatureSBE03/SBE38deg celciusITS90
ConductivitySBE21S/mITS90
SalinitySBE21 Practical Salinity Units
ChlorophylAChelsea fluorimeterg/lCalibrated in Aceton
Missing or incorrect values are displayed as -999
Sea surface data collected by the RV Zeeleeuw from 2006-06-07 04:00:49 to 2006-06-07 14:08:24
                                                                                    Next 1000 lines
Time Latitude Longitude Temperature Conductivity Salinity ChlorophylA
2006-06-07 04:00:59 51°13.603 2°56.094 20.873 0.008614 0.04891 12.331708
2006-06-07 04:01:04 51°13.604 2°56.09 20.9089 0.008614 0.04891 12.331708
2006-06-07 04:01:09 51°13.605 2°56.085 20.8794 0.008614 0.048911 12.331708
2006-06-07 04:01:15 51°13.607 2°56.079 20.9018 0.008614 0.048911 12.331708
2006-06-07 04:01:19 51°13.608 2°56.074 20.8512 0.008614 0.048912 12.331708
2006-06-07 04:01:25 51°13.611 2°56.066 20.8954 0.008614 0.048912 12.331708
2006-06-07 04:01:30 51°13.613 2°56.059 20.907 0.008614 0.048912 12.331708
2006-06-07 04:01:35 51°13.615 2°56.052 20.8944 0.008614 0.048912 12.365418
2006-06-07 04:01:39 51°13.617 2°56.045 20.9091 0.008614 0.048912 12.331708
2006-06-07 04:01:45 51°13.619 2°56.036 20.8926 0.008614 0.048913 12.331708
2006-06-07 04:01:50 51°13.621 2°56.028 20.8908 0.00851 0.04839 12.365418
2006-06-07 04:01:55 51°13.622 2°56.019 20.869 0.00851 0.04839 12.365418
2006-06-07 04:02:00 51°13.624 2°56.011 20.9059 0.008614 0.048913 12.365418
2006-06-07 04:02:05 51°13.626 2°56.003 20.8906 0.008614 0.048913 12.331708
2006-06-07 04:02:10 51°13.627 2°55.994 20.8977 0.008614 0.048914 12.331708
2006-06-07 04:02:15 51°13.63 2°55.985 20.8961 0.008614 0.048914 12.331708
2006-06-07 04:02:20 51°13.632 2°55.976 20.9107 0.008614 0.048915 12.331708
2006-06-07 04:02:25 51°13.634 2°55.966 20.9105 0.008614 0.048915 12.331708
2006-06-07 04:02:29 51°13.636 2°55.958 20.8802 0.008614 0.048915 12.331708
2006-06-07 04:02:35 51°13.638 2°55.945 20.9237 0.00851 0.048392 12.297999
2006-06-07 04:02:40 51°13.641 2°55.935 20.8859 0.008614 0.048915 12.331708
2006-06-07 04:02:45 51°13.644 2°55.924 20.8748 0.00851 0.048393 12.331708
2006-06-07 04:02:50 51°13.647 2°55.913 20.1895 0.008614 0.048916 12.331708
2006-06-07 04:02:55 51°13.65 2°55.902 18.3459 0.008614 0.048916 12.331708
2006-06-07 04:03:00 51°13.653 2°55.89 17.3562 0.00851 0.048398 12.297999
2006-06-07 04:03:05 51°13.657 2°55.879 16.3293 0.00851 0.048427 12.331708
2006-06-07 04:03:10 51°13.66 2°55.868 16.0383 0.00851 0.048456 12.297999
2006-06-07 04:03:15 51°13.664 2°55.857 15.8026 3.952994 27.490628 25.680631
2006-06-07 04:03:20 51°13.668 2°55.846 15.6641 3.776181 26.203565 29.658341
2006-06-07 04:03:25 51°13.671 2°55.836 15.5493 3.776181 26.203565 29.658341
2006-06-07 04:03:30 51°13.674 2°55.826 15.4395 3.882304 27.922682 16.545383
2006-06-07 04:03:35 51°13.677 2°55.816 15.3978 3.993593 29.174737 13.680084
2006-06-07 04:03:40 51°13.68 2°55.807 15.3478 3.901189 29.29729 13.545247
2006-06-07 04:03:45 51°13.683 2°55.798 15.3348 3.832494 29.250324 13.545247
2006-06-07 04:03:49 51°13.685 2°55.791 15.3013 3.868538 29.967346 13.646375
2006-06-07 04:03:55 51°13.687 2°55.781 15.2778 3.868538 29.967346 13.646375
2006-06-07 04:04:00 51°13.69 2°55.773 15.2377 3.826604 29.84034 13.646375
2006-06-07 04:04:05 51°13.692 2°55.765 15.213 3.80743 29.846853 13.612665
2006-06-07 04:04:10 51°13.694 2°55.757 15.1874 3.790784 29.80486 13.511537
2006-06-07 04:04:15 51°13.696 2°55.75 15.1735 3.784779 29.821581 13.410409
2006-06-07 04:04:20 51°13.698 2°55.743 15.1794 3.76866 29.734981 13.3767
2006-06-07 04:04:25 51°13.699 2°55.737 15.1342 3.76866 29.734981 13.3767
2006-06-07 04:04:29 51°13.7 2°55.733 15.1233 3.76276 29.732846 13.275571
2006-06-07 04:04:35 51°13.701 2°55.728 15.1275 3.756439 29.719105 13.208153
2006-06-07 04:04:39 51°13.701 2°55.727 15.1229 3.748327 29.687317 13.208153
2006-06-07 04:04:43 51°13.701 2°55.725 15.1443 3.742638 29.66494 13.241862
2006-06-07 04:04:49 51°13.702 2°55.725 15.0965 3.736317 29.63357 14.185725
2006-06-07 04:04:53 51°13.702 2°55.726 15.1124 3.736317 29.63357 14.185725
2006-06-07 04:04:58 51°13.703 2°55.728 15.0941 3.730839 29.601679 13.005896
2006-06-07 04:05:02 51°13.704 2°55.73 15.1004 3.717038 29.500316 12.702512
2006-06-07 04:05:09 51°13.706 2°55.734 15.0684 3.736213 29.68025 12.635093
2006-06-07 04:05:14 51°13.708 2°55.738 15.0738 3.734527 29.673315 12.635093
2006-06-07 04:05:19 51°13.71 2°55.741 15.06 3.729681 29.640735 12.533965
2006-06-07 04:05:25 51°13.713 2°55.744 15.0795 3.729681 29.640735 12.533965
2006-06-07 04:05:28 51°13.714 2°55.746 15.0515 3.728838 29.642371 12.500255
2006-06-07 04:05:33 51°13.715 2°55.747 15.034 3.725151 29.621143 12.466546
2006-06-07 04:05:39 51°13.716 2°55.748 15.0289 3.707978 29.481321 12.399127
2006-06-07 04:05:43 51°13.716 2°55.748 15.0278 3.716407 29.564282 12.331708
2006-06-07 04:05:49 51°13.715 2°55.748 15.0245 3.693334 29.363824 12.331708
2006-06-07 04:05:54 51°13.713 2°55.746 15.0617 3.693334 29.363824 12.331708
2006-06-07 04:05:59 51°13.712 2°55.745 15.0386 3.701341 29.443015 12.331708
2006-06-07 04:06:05 51°13.71 2°55.743 15.0617 3.697548 29.416273 12.331708
2006-06-07 04:06:09 51°13.709 2°55.742 15.0542 3.691122 29.373574 12.331708
2006-06-07 04:06:15 51°13.707 2°55.741 15.0293 3.69344 29.402529 12.365418
2006-06-07 04:06:20 51°13.706 2°55.74 15.0414 3.679323 29.284476 12.399127
2006-06-07 04:06:25 51°13.706 2°55.74 15.0285 3.679323 29.284476 12.399127
2006-06-07 04:06:29 51°13.707 2°55.74 15.0387 3.690806 29.385447 12.399127
2006-06-07 04:06:35 51°13.708 2°55.741 15.026 3.683853 29.320583 12.432836
2006-06-07 04:06:40 51°13.711 2°55.741 15.0401 3.691649 29.386692 12.500255
2006-06-07 04:06:45 51°13.714 2°55.74 15.0334 3.691754 29.388752 12.567674
2006-06-07 04:06:50 51°13.717 2°55.739 15.0262 3.686382 29.346882 12.635093
2006-06-07 04:06:55 51°13.721 2°55.737 15.0106 3.686382 29.346882 12.635093
2006-06-07 04:07:00 51°13.725 2°55.734 15.0123 3.697444 29.448679 12.635093
2006-06-07 04:07:05 51°13.73 2°55.73 15.0047 3.684696 29.337612 12.702512
2006-06-07 04:07:09 51°13.734 2°55.726 14.9818 3.686171 29.350656 12.76993
2006-06-07 04:07:13 51°13.739 2°55.722 14.985 3.706083 29.530234 12.837349
2006-06-07 04:07:19 51°13.746 2°55.716 14.9838 3.695126 29.435524 12.904768
2006-06-07 04:07:23 51°13.75 2°55.712 14.9877 3.695126 29.435524 12.904768
2006-06-07 04:07:29 51°13.758 2°55.704 14.9702 3.709243 29.5656 12.972187
2006-06-07 04:07:34 51°13.766 2°55.697 14.9622 3.704503 29.52816 12.972187
2006-06-07 04:07:39 51°13.774 2°55.689 14.9516 3.692492 29.428619 13.005896
2006-06-07 04:07:45 51°13.784 2°55.68 14.9546 3.686804 29.388431 13.039606
2006-06-07 04:07:49 51°13.791 2°55.673 14.9489 3.685223 29.381222 13.174443
2006-06-07 04:07:53 51°13.799 2°55.666 14.9406 3.685223 29.381222 13.174443
2006-06-07 04:07:59 51°13.811 2°55.654 14.9441 3.684907 29.382946 13.174443
2006-06-07 04:08:03 51°13.82 2°55.647 14.9641 3.680904 29.350316 13.208153
2006-06-07 04:08:09 51°13.833 2°55.636 14.9269 3.671212 29.27182 13.208153
2006-06-07 04:08:14 51°13.844 2°55.627 14.9397 3.659413 29.172981 13.241862
2006-06-07 04:08:18 51°13.854 2°55.619 14.9799 3.652039 29.112756 13.275571
2006-06-07 04:08:25 51°13.87 2°55.605 14.9532 3.652039 29.112756 13.275571
2006-06-07 04:08:28 51°13.877 2°55.6 14.9568 3.653198 29.126939 13.309281
2006-06-07 04:08:33 51°13.889 2°55.591 14.9626 3.642453 29.03463 13.34299
2006-06-07 04:08:39 51°13.904 2°55.579 14.9624 3.647931 29.085916 13.410409
2006-06-07 04:08:43 51°13.914 2°55.572 14.966 3.650986 29.118573 13.545247
2006-06-07 04:08:49 51°13.929 2°55.561 14.9791 3.647088 29.084058 13.612665
2006-06-07 04:08:53 51°13.939 2°55.553 14.9797 3.647088 29.084058 13.612665
2006-06-07 04:08:59 51°13.954 2°55.542 14.9787 3.661099 29.201398 13.747503
2006-06-07 04:09:03 51°13.965 2°55.535 15.0058 3.667841 29.262251 13.848631
2006-06-07 04:09:09 51°13.98 2°55.524 14.9922 3.676585 29.336346 13.91605
2006-06-07 04:09:13 51°13.991 2°55.517 14.9924 3.674794 29.319345 14.050888
2006-06-07 04:09:19 51°14.006 2°55.507 14.9934 3.693757 29.484039 14.084597
2006-06-07 04:09:23 51°14.016 2°55.501 14.9972 3.693757 29.484039 14.084597
2006-06-07 04:09:29 51°14.03 2°55.491 15.0092 3.697866 29.516495 14.118306
2006-06-07 04:09:35 51°14.045 2°55.481 15.0049 3.703028 29.559429 14.152016
2006-06-07 04:09:39 51°14.054 2°55.475 15.0004 3.692598 29.458443 14.253144
2006-06-07 04:09:43 51°14.063 2°55.468 15.0054 3.709771 29.608971 14.219435
2006-06-07 04:09:49 51°14.077 2°55.459 14.9964 3.706083 29.576274 14.286853
2006-06-07 04:09:53 51°14.086 2°55.453 14.9896 3.706083 29.576274 14.286853
2006-06-07 04:09:59 51°14.099 2°55.443 14.9871 3.716303 29.66519 14.387982
2006-06-07 04:10:03 51°14.108 2°55.437 14.9825 3.715987 29.659531 14.4554
2006-06-07 04:10:08 51°14.119 2°55.429 14.9837 3.720306 29.697272 14.556529
2006-06-07 04:10:13 51°14.13 2°55.42 14.9808 3.722413 29.715963 14.657657
2006-06-07 04:10:19 51°14.144 2°55.409 14.9796 3.723572 29.727389 14.725076
2006-06-07 04:10:23 51°14.153 2°55.401 14.9809 3.723572 29.727389 14.725076
2006-06-07 04:10:28 51°14.165 2°55.392 14.9814 3.723783 29.730403 14.826204
2006-06-07 04:10:33 51°14.176 2°55.382 14.9755 3.726733 29.758295 14.893623
2006-06-07 04:10:39 51°14.19 2°55.368 14.994 3.724205 29.740439 14.927332
2006-06-07 04:10:43 51°14.199 2°55.359 14.9781 3.718515 29.693961 15.02846
2006-06-07 04:10:49 51°14.213 2°55.343 14.9734 3.720623 29.713803 15.095879
2006-06-07 04:10:55 51°14.226 2°55.326 14.9668 3.720623 29.713803 15.095879
2006-06-07 04:10:58 51°14.232 2°55.318 14.9617 3.722308 29.730481 15.095879
2006-06-07 04:11:03 51°14.242 2°55.303 14.9586 3.722203 29.730118 15.163298
2006-06-07 04:11:09 51°14.254 2°55.284 14.9369 3.720201 29.714641 15.197007
2006-06-07 04:11:13 51°14.262 2°55.271 14.9244 3.719148 29.703574 15.264426
2006-06-07 04:11:19 51°14.274 2°55.25 14.918 3.717673 29.692772 15.331845
2006-06-07 04:11:23 51°14.282 2°55.236 14.9168 3.717673 29.692772 15.331845
2006-06-07 04:11:29 51°14.293 2°55.214 14.9112 3.714828 29.670957 15.331845
2006-06-07 04:11:33 51°14.301 2°55.199 14.9208 3.695865 29.506702 15.365554
2006-06-07 04:11:39 51°14.312 2°55.177 14.9216 3.699657 29.545466 15.432973
2006-06-07 04:11:43 51°14.319 2°55.161 14.9294 3.688912 29.460935 15.466683
2006-06-07 04:11:49 51°14.33 2°55.138 14.9273 3.666472 29.271549 15.500392
2006-06-07 04:11:55 51°14.341 2°55.115 14.9274 3.666472 29.271549 15.500392
2006-06-07 04:11:59 51°14.349 2°55.101 14.9217 3.664787 29.262813 15.567811
2006-06-07 04:12:03 51°14.358 2°55.086 14.9286 3.663733 29.257986 15.668939
2006-06-07 04:12:09 51°14.371 2°55.064 14.9536 3.65678 29.19915 15.770067
2006-06-07 04:12:13 51°14.38 2°55.05 14.9935 3.653831 29.172435 15.871195
2006-06-07 04:12:19 51°14.394 2°55.028 14.9437 3.635184 29.003836 16.006033
2006-06-07 04:12:24 51°14.406 2°55.008 14.9426 3.635184 29.003836 16.006033
2006-06-07 04:12:28 51°14.416 2°54.993 14.932 3.657412 29.198558 16.17458
2006-06-07 04:12:33 51°14.427 2°54.973 14.9113 3.660046 29.221343 16.208289
2006-06-07 04:12:39 51°14.442 2°54.948 14.909 3.66742 29.283909 16.275708
2006-06-07 04:12:43 51°14.451 2°54.931 14.9012 3.677639 29.363219 16.343127
2006-06-07 04:12:48 51°14.463 2°54.91 14.8773 3.686699 29.433933 16.410546
2006-06-07 04:12:54 51°14.477 2°54.884 14.8798 3.686699 29.433933 16.410546
2006-06-07 04:12:59 51°14.489 2°54.863 14.8432 3.702923 29.584706 16.545383
2006-06-07 04:13:03 51°14.498 2°54.846 14.8301 3.716725 29.713549 16.71393
2006-06-07 04:13:09 51°14.512 2°54.82 14.8154 3.728104 29.823855 16.848768
2006-06-07 04:13:13 51°14.521 2°54.803 14.8056 3.74907 30.018442 16.983606
2006-06-07 04:13:19 51°14.536 2°54.777 14.8058 3.755603 30.086463 17.118443
2006-06-07 04:13:23 51°14.545 2°54.76 14.7851 3.755603 30.086463 17.118443
2006-06-07 04:13:29 51°14.56 2°54.735 14.7708 3.77678 30.285679 17.253281
2006-06-07 04:13:33 51°14.57 2°54.719 14.7353 3.786579 30.387161 17.388118
2006-06-07 04:13:39 51°14.585 2°54.694 14.7401 3.803122 30.554929 17.556665
2006-06-07 04:13:43 51°14.595 2°54.678 14.7055 3.823142 30.747597 17.691503
2006-06-07 04:13:48 51°14.608 2°54.657 14.6863 3.835998 30.872817 17.792631
2006-06-07 04:13:53 51°14.621 2°54.637 14.6676 3.835998 30.872817 17.792631
2006-06-07 04:13:59 51°14.635 2°54.612 14.6374 3.844744 30.959551 17.927469
2006-06-07 04:14:05 51°14.65 2°54.586 14.6274 3.85918 31.099805 18.096016
2006-06-07 04:14:08 51°14.657 2°54.573 14.606 3.870034 31.216546 18.264563
2006-06-07 04:14:13 51°14.668 2°54.55 14.6145 3.866662 31.201401 18.365691
2006-06-07 04:14:19 51°14.681 2°54.523 14.5921 3.874355 31.288731 18.500529
2006-06-07 04:14:24 51°14.691 2°54.501 14.5689 3.874355 31.288731 18.500529
2006-06-07 04:14:29 51°14.702 2°54.478 14.5622 3.875514 31.316185 18.567947
2006-06-07 04:14:33 51°14.711 2°54.459 14.5516 3.882364 31.392458 18.567947
2006-06-07 04:14:39 51°14.724 2°54.432 14.5392 3.880573 31.398924 18.534238
2006-06-07 04:14:45 51°14.738 2°54.404 14.5253 3.894061 31.537663 18.534238
2006-06-07 04:14:49 51°14.747 2°54.386 14.5274 3.895115 31.558232 18.500529
2006-06-07 04:14:54 51°14.759 2°54.365 14.4992 3.895115 31.558232 18.500529
2006-06-07 04:14:59 51°14.771 2°54.344 14.4921 3.883208 31.46492 18.466819
2006-06-07 04:15:05 51°14.786 2°54.319 14.4872 3.887318 31.520437 18.534238
2006-06-07 04:15:09 51°14.796 2°54.303 14.4727 3.889847 31.558666 18.567947
2006-06-07 04:15:13 51°14.807 2°54.287 14.4384 3.887318 31.545669 18.669076
2006-06-07 04:15:19 51°14.822 2°54.264 14.4386 3.890479 31.581022 18.770204
2006-06-07 04:15:24 51°14.835 2°54.243 14.4224 3.890479 31.581022 18.770204
2006-06-07 04:15:29 51°14.848 2°54.224 14.415 3.893852 31.620772 18.871332
2006-06-07 04:15:33 51°14.858 2°54.207 14.4206 3.896276 31.655681 18.97246
2006-06-07 04:15:39 51°14.873 2°54.183 14.4147 3.894063 31.647413 19.107298
2006-06-07 04:15:43 51°14.883 2°54.167 14.4 3.893958 31.6607 19.275845
2006-06-07 04:15:48 51°14.895 2°54.147 14.3953 3.89733 31.706748 19.478101
2006-06-07 04:15:53 51°14.908 2°54.126 14.3996 3.89733 31.706748 19.478101
2006-06-07 04:15:59 51°14.923 2°54.103 14.4023 3.899332 31.73794 19.714067
2006-06-07 04:16:04 51°14.936 2°54.084 14.4003 3.89712 31.728445 19.916324
2006-06-07 04:16:09 51°14.949 2°54.064 14.4131 3.895118 31.717749 20.051161
2006-06-07 04:16:15 51°14.964 2°54.041 14.3935 3.896066 31.730703 20.185999
2006-06-07 04:16:19 51°14.974 2°54.026 14.3878 3.893853 31.718715 20.287127
2006-06-07 04:16:24 51°14.987 2°54.007 14.3846 3.893853 31.718715 20.287127
2006-06-07 04:16:29 51°15 2°53.987 14.3965 3.899333 31.772172 20.455674
2006-06-07 04:16:33 51°15.009 2°53.97 14.3906 3.90123 31.791881 20.65793
2006-06-07 04:16:39 51°15.023 2°53.944 14.3844 3.903127 31.809722 20.792768
2006-06-07 04:16:43 51°15.032 2°53.926 14.3729 3.893326 31.719533 20.995024
2006-06-07 04:16:48 51°15.042 2°53.904 14.372 3.901546 31.79974 21.163571
2006-06-07 04:16:53 51°15.052 2°53.879 14.372 3.901546 31.79974 21.163571
2006-06-07 04:16:59 51°15.064 2°53.85 14.3712 3.897015 31.764216 21.2647
2006-06-07 04:17:03 51°15.072 2°53.831 14.3783 3.902284 31.813302 21.332118
2006-06-07 04:17:09 51°15.084 2°53.802 14.3835 3.902284 31.814551 21.433247
2006-06-07 04:17:14 51°15.095 2°53.779 14.3744 3.898701 31.787008 21.500665
2006-06-07 04:17:19 51°15.107 2°53.756 14.3775 3.901546 31.818468 21.534375
2006-06-07 04:17:25 51°15.121 2°53.731 14.3805 3.901546 31.818468 21.534375
2006-06-07 04:17:28 51°15.128 2°53.718 14.39 3.899017 31.799865 21.635503
2006-06-07 04:17:33 51°15.14 2°53.697 14.38 3.90102 31.819304 21.568084
2006-06-07 04:17:39 51°15.155 2°53.672 14.3858 3.900282 31.811977 21.601794
2006-06-07 04:17:43 51°15.165 2°53.654 14.3953 3.898069 31.788129 21.635503
2006-06-07 04:17:48 51°15.176 2°53.632 14.3901 3.906183 31.861841 21.669212
2006-06-07 04:17:53 51°15.188 2°53.61 14.3825 3.906183 31.861841 21.669212
2006-06-07 04:17:59 51°15.2 2°53.582 14.3939 3.903338 31.835366 21.736631
2006-06-07 04:18:03 51°15.209 2°53.562 14.3953 3.903548 31.833531 21.770341
2006-06-07 04:18:09 51°15.221 2°53.533 14.3907 3.89986 31.799407 21.80405
2006-06-07 04:18:14 51°15.23 2°53.508 14.3925 3.903654 31.833239 21.871469
2006-06-07 04:18:19 51°15.239 2°53.482 14.3982 3.907026 31.86262 21.905178
2006-06-07 04:18:25 51°15.249 2°53.451 14.4001 3.907026 31.86262 21.905178
2006-06-07 04:18:29 51°15.256 2°53.43 14.3953 3.911873 31.908539 21.972597
2006-06-07 04:18:33 51°15.263 2°53.409 14.3915 3.911347 31.903125 22.040016
2006-06-07 04:18:39 51°15.272 2°53.377 14.4021 3.909766 31.886885 22.073725
2006-06-07 04:18:43 51°15.279 2°53.356 14.4001 3.91103 31.898374 22.107435
2006-06-07 04:18:49 51°15.289 2°53.325 14.4015 3.910925 31.896164 22.208563
2006-06-07 04:18:53 51°15.296 2°53.304 14.4026 3.910925 31.896164 22.208563
2006-06-07 04:18:59 51°15.307 2°53.273 14.3996 3.912295 31.906732 22.275982
2006-06-07 04:19:05 51°15.318 2°53.242 14.3962 3.910293 31.887291 22.275982
2006-06-07 04:19:09 51°15.326 2°53.222 14.4004 3.914086 31.923008 22.410819
2006-06-07 04:19:13 51°15.334 2°53.202 14.3879 3.910503 31.887954 22.478238
2006-06-07 04:19:19 51°15.346 2°53.173 14.3766 3.911241 31.893403 22.579366
2006-06-07 04:19:24 51°15.356 2°53.148 14.366 3.911241 31.893403 22.579366
2006-06-07 04:19:28 51°15.363 2°53.128 14.3608 3.913138 31.907503 22.579366
2006-06-07 04:19:35 51°15.374 2°53.09 14.3638 3.909976 31.881291 22.579366
2006-06-07 04:19:39 51°15.379 2°53.069 14.3565 3.912822 31.907136 22.579366
2006-06-07 04:19:44 51°15.384 2°53.04 14.3475 3.910609 31.888285 22.613076
2006-06-07 04:19:49 51°15.389 2°53.012 14.343 3.914613 31.931556 22.613076
2006-06-07 04:19:55 51°15.392 2°52.976 14.3351 3.914613 31.931556 22.613076
2006-06-07 04:19:59 51°15.395 2°52.953 14.3328 3.913454 31.928543 22.613076
2006-06-07 04:20:04 51°15.397 2°52.923 14.3292 3.910609 31.91083 22.680494
2006-06-07 04:20:09 51°15.399 2°52.893 14.3302 3.912085 31.929885 22.714204
2006-06-07 04:20:15 51°15.4 2°52.856 14.3244 3.909661 31.913491 22.747913
2006-06-07 04:20:19 51°15.401 2°52.832 14.3216 3.909239 31.915929 22.781623
2006-06-07 04:20:24 51°15.402 2°52.802 14.3288 3.909239 31.915929 22.781623
2006-06-07 04:20:28 51°15.403 2°52.777 14.3242 3.906184 31.893152 22.815332
2006-06-07 04:20:35 51°15.404 2°52.734 14.3454 3.904287 31.880914 22.882751
2006-06-07 04:20:39 51°15.404 2°52.71 14.3339 3.907448 31.914063 22.95017
2006-06-07 04:20:43 51°15.405 2°52.686 14.3211 3.905551 31.898687 22.983879
2006-06-07 04:20:49 51°15.406 2°52.649 14.3194 3.904287 31.889691 22.983879
2006-06-07 04:20:53 51°15.406 2°52.625 14.3259 3.904287 31.889691 22.983879
2006-06-07 04:21:00 51°15.409 2°52.582 14.3253 3.909345 31.936345 23.051298
2006-06-07 04:21:05 51°15.411 2°52.552 14.3278 3.904076 31.889655 23.118717
2006-06-07 04:21:09 51°15.413 2°52.528 14.3247 3.903549 31.880472 23.219845
2006-06-07 04:21:13 51°15.415 2°52.504 14.331 3.904498 31.8891 23.320973
2006-06-07 04:21:19 51°15.418 2°52.468 14.33 3.905973 31.903777 23.388392
2006-06-07 04:21:23 51°15.42 2°52.444 14.3225 3.905973 31.903777 23.388392
2006-06-07 04:21:29 51°15.422 2°52.407 14.3276 3.907238 31.917794 23.52323
2006-06-07 04:21:33 51°15.424 2°52.383 14.3286 3.904603 31.893822 23.658067
2006-06-07 04:21:39 51°15.426 2°52.347 14.3319 3.909451 31.93856 23.826614
2006-06-07 04:21:45 51°15.428 2°52.311 14.3266 3.914614 31.983671 23.927742
2006-06-07 04:21:49 51°15.429 2°52.286 14.3163 3.910926 31.949473 24.06258
2006-06-07 04:21:53 51°15.43 2°52.262 14.3141 3.910926 31.949473 24.06258
2006-06-07 04:21:59 51°15.432 2°52.226 14.3247 3.91472 31.985888 24.129999
2006-06-07 04:22:03 51°15.433 2°52.201 14.3153 3.913033 31.970541 24.231127
2006-06-07 04:22:09 51°15.436 2°52.165 14.3016 3.915457 31.993861 24.298546
2006-06-07 04:22:15 51°15.439 2°52.129 14.3038 3.917354 32.00987 24.399674
2006-06-07 04:22:19 51°15.441 2°52.105 14.3004 3.921042 32.04471 24.399674
2006-06-07 04:22:24 51°15.444 2°52.075 14.2935 3.921042 32.04471 24.399674
2006-06-07 04:22:29 51°15.447 2°52.045 14.2964 3.918829 32.02897 24.500802
2006-06-07 04:22:33 51°15.45 2°52.021 14.296 3.91219 31.968526 24.568221
2006-06-07 04:22:39 51°15.454 2°51.985 14.2835 3.91356 31.981627 24.568221
2006-06-07 04:22:43 51°15.456 2°51.961 14.2797 3.919146 32.038782 24.60193
2006-06-07 04:22:49 51°15.46 2°51.926 14.2718 3.915141 32.006722 24.669349
2006-06-07 04:22:53 51°15.463 2°51.902 14.2666 3.915141 32.006722 24.669349
2006-06-07 04:22:59 51°15.467 2°51.866 14.2583 3.916195 32.021991 24.703059
2006-06-07 04:23:03 51°15.469 2°51.842 14.2475 3.918197 32.043385 24.770477
2006-06-07 04:23:08 51°15.472 2°51.811 14.2579 3.911453 31.981315 24.804187
2006-06-07 04:23:13 51°15.475 2°51.782 14.2518 3.912402 31.994362 24.837896
2006-06-07 04:23:18 51°15.478 2°51.752 14.2451 3.913456 32.010896 24.905315
2006-06-07 04:23:23 51°15.48 2°51.722 14.232 3.913456 32.010896 24.905315
2006-06-07 04:23:29 51°15.483 2°51.686 14.2309 3.910926 31.994151 24.972734
2006-06-07 04:23:34 51°15.485 2°51.655 14.2386 3.913245 32.022219 25.006443
2006-06-07 04:23:39 51°15.487 2°51.625 14.2367 3.90629 31.963861 25.073862
2006-06-07 04:23:45 51°15.49 2°51.589 14.2381 3.912297 32.022406 25.107571
2006-06-07 04:23:49 51°15.491 2°51.565 14.231 3.911243 32.014059 25.17499
2006-06-07 04:23:54 51°15.494 2°51.535 14.2392 3.911243 32.014059 25.17499
2006-06-07 04:23:59 51°15.496 2°51.505 14.2445 3.91314 32.037671 25.242409
2006-06-07 04:24:05 51°15.499 2°51.469 14.2362 3.911559 32.028305 25.309828
2006-06-07 04:24:09 51°15.502 2°51.445 14.2361 3.90629 31.982769 25.377247
2006-06-07 04:24:15 51°15.506 2°51.41 14.2378 3.905974 31.981778 25.410956
2006-06-07 04:24:19 51°15.508 2°51.386 14.2346 3.909557 32.015092 25.478375
2006-06-07 04:24:23 51°15.511 2°51.362 14.2343 3.909557 32.015092 25.478375
2006-06-07 04:24:28 51°15.515 2°51.332 14.2394 3.910189 32.021492 25.579503
2006-06-07 04:24:33 51°15.519 2°51.303 14.2257 3.913351 32.048439 25.613212
2006-06-07 04:24:39 51°15.524 2°51.267 14.2197 3.917671 32.086597 25.680631
2006-06-07 04:24:44 51°15.528 2°51.238 14.2113 3.917461 32.085939 25.781759
2006-06-07 04:24:49 51°15.531 2°51.208 14.2086 3.912508 32.041379 25.849178
2006-06-07 04:24:55 51°15.535 2°51.172 14.2012 3.912508 32.041379 25.849178
2006-06-07 04:24:59 51°15.538 2°51.148 14.199 3.912929 32.045857 25.916597
2006-06-07 04:25:03 51°15.541 2°51.124 14.1999 3.913456 32.050033 25.984016
2006-06-07 04:25:09 51°15.545 2°51.088 14.1914 3.916828 32.085232 26.051435
2006-06-07 04:25:15 51°15.548 2°51.052 14.1859 3.915669 32.078449 26.152563
2006-06-07 04:25:19 51°15.551 2°51.028 14.1739 3.918831 32.114275 26.152563
2006-06-07 04:25:25 51°15.555 2°50.993 14.1778 3.918831 32.114275 26.152563
2006-06-07 04:25:29 51°15.558 2°50.969 14.1696 3.917777 32.108455 26.219982
2006-06-07 04:25:33 51°15.56 2°50.945 14.1709 3.91451 32.08306 26.2874
2006-06-07 04:25:39 51°15.565 2°50.909 14.1653 3.917988 32.119889 26.32111
2006-06-07 04:25:43 51°15.567 2°50.885 14.1589 3.918515 32.131045 26.388529
2006-06-07 04:25:49 51°15.571 2°50.849 14.1616 3.915564 32.108528 26.388529
2006-06-07 04:25:53 51°15.574 2°50.825 14.1645 3.915564 32.108528 26.388529
2006-06-07 04:25:59 51°15.578 2°50.789 14.1572 3.909874 32.062244 26.489657
2006-06-07 04:26:03 51°15.581 2°50.765 14.155 3.914405 32.106816 26.523366
2006-06-07 04:26:08 51°15.584 2°50.735 14.1552 3.913352 32.099723 26.557076
2006-06-07 04:26:13 51°15.588 2°50.705 14.1587 3.910822 32.07978 26.624494
2006-06-07 04:26:19 51°15.592 2°50.669 14.1594 3.916302 32.134308 26.658204
2006-06-07 04:26:23 51°15.595 2°50.645 14.1592 3.916302 32.134308 26.658204
2006-06-07 04:26:29 51°15.6 2°50.609 14.1657 3.910085 32.07811 26.759332
2006-06-07 04:26:34 51°15.603 2°50.579 14.1668 3.915038 32.125923 26.826751
2006-06-07 04:26:39 51°15.606 2°50.549 14.1555 3.913141 32.110486 26.86046
2006-06-07 04:26:44 51°15.61 2°50.519 14.1626 3.906502 32.051067 26.927879
2006-06-07 04:26:49 51°15.613 2°50.489 14.1699 3.913141 32.11112 26.927879
2006-06-07 04:26:53 51°15.616 2°50.465 14.1668 3.913141 32.11112 26.927879
2006-06-07 04:26:59 51°15.619 2°50.429 14.1727 3.91704 32.147406 26.995298
2006-06-07 04:27:03 51°15.622 2°50.405 14.1783 3.914616 32.123974 27.029007
2006-06-07 04:27:08 51°15.625 2°50.375 14.1732 3.917251 32.146791 27.062717
2006-06-07 04:27:13 51°15.629 2°50.345 14.1746 3.916408 32.139083 27.163845
2006-06-07 04:27:19 51°15.633 2°50.309 14.1793 3.915881 32.13363 27.197554
2006-06-07 04:27:24 51°15.636 2°50.279 14.1823 3.915881 32.13363 27.197554
2006-06-07 04:27:29 51°15.641 2°50.25 14.1826 3.915881 32.131725 27.298683
2006-06-07 04:27:33 51°15.643 2°50.226 14.1853 3.921571 32.181846 27.366101
2006-06-07 04:27:39 51°15.648 2°50.19 14.1891 3.923995 32.2021 27.43352
2006-06-07 04:27:45 51°15.652 2°50.154 14.1917 3.919991 32.16485 27.500939
2006-06-07 04:27:49 51°15.655 2°50.131 14.1871 3.923257 32.193446 27.500939
2006-06-07 04:27:54 51°15.658 2°50.101 14.1812 3.923257 32.193446 27.500939
2006-06-07 04:27:59 51°15.661 2°50.071 14.182 3.919358 32.154622 27.568358
2006-06-07 04:28:03 51°15.664 2°50.047 14.1733 3.924627 32.201518 27.602067
2006-06-07 04:28:09 51°15.667 2°50.012 14.1712 3.925365 32.206353 27.635777
2006-06-07 04:28:13 51°15.67 2°49.988 14.1631 3.925365 32.203172 27.703195
2006-06-07 04:28:19 51°15.673 2°49.952 14.1648 3.922941 32.178474 27.770614
2006-06-07 04:28:25 51°15.676 2°49.917 14.1655 3.922941 32.178474 27.770614
2006-06-07 04:28:29 51°15.679 2°49.893 14.1675 3.924522 32.194194 27.838033
2006-06-07 04:28:35 51°15.683 2°49.858 14.1719 3.92252 32.1778 27.905452
2006-06-07 04:28:39 51°15.685 2°49.835 14.173 3.926419 32.217897 28.00658
2006-06-07 04:28:43 51°15.688 2°49.811 14.1758 3.92663 32.224281 28.107708
2006-06-07 04:28:49 51°15.693 2°49.776 14.1737 3.927789 32.238067 28.242546
2006-06-07 04:28:53 51°15.696 2°49.753 14.1693 3.927789 32.238067 28.242546
2006-06-07 04:28:59 51°15.7 2°49.718 14.1725 3.927367 32.236761 28.309965
2006-06-07 04:29:03 51°15.703 2°49.695 14.1731 3.927051 32.233869 28.411093
2006-06-07 04:29:09 51°15.708 2°49.66 14.1794 3.929264 32.253474 28.444802
2006-06-07 04:29:13 51°15.711 2°49.636 14.1746 3.930213 32.258961 28.512221
2006-06-07 04:29:19 51°15.714 2°49.601 14.1676 3.932531 32.278253 28.57964
2006-06-07 04:29:23 51°15.716 2°49.578 14.1669 3.932531 32.278253 28.57964
2006-06-07 04:29:29 51°15.72 2°49.543 14.1695 3.931161 32.265723 28.57964
2006-06-07 04:29:35 51°15.723 2°49.508 14.1671 3.931477 32.26989 28.647059
2006-06-07 04:29:39 51°15.725 2°49.484 14.172 3.931161 32.266998 28.680768
2006-06-07 04:29:43 51°15.726 2°49.461 14.1718 3.93369 32.290771 28.714477
2006-06-07 04:29:49 51°15.73 2°49.426 14.1553 3.931056 32.266672 28.714477
2006-06-07 04:29:55 51°15.734 2°49.391 14.1509 3.931056 32.266672 28.714477
2006-06-07 04:29:59 51°15.736 2°49.368 14.149 3.93074 32.265693 28.714477
2006-06-07 04:30:03 51°15.739 2°49.345 14.1454 3.930634 32.263454 28.680768
2006-06-07 04:30:08 51°15.743 2°49.316 14.1402 3.929897 32.259257 28.647059
2006-06-07 04:30:13 51°15.747 2°49.287 14.1344 3.928948 32.249307 28.647059
2006-06-07 04:30:18 51°15.751 2°49.259 14.1138 3.932847 32.28625 28.613349
2006-06-07 04:30:23 51°15.755 2°49.23 14.1006 3.932847 32.28625 28.613349
2006-06-07 04:30:29 51°15.76 2°49.196 14.0981 3.934323 32.306133 28.647059
2006-06-07 04:30:34 51°15.764 2°49.167 14.0864 3.934112 32.307398 28.647059
2006-06-07 04:30:39 51°15.768 2°49.138 14.0792 3.934955 32.320865 28.647059
2006-06-07 04:30:45 51°15.772 2°49.104 14.0715 3.934955 32.32534 28.680768
2006-06-07 04:30:49 51°15.775 2°49.081 14.0674 3.929897 32.2867 28.714477
2006-06-07 04:30:53 51°15.778 2°49.058 14.0578 3.929897 32.2867 28.714477
2006-06-07 04:30:59 51°15.782 2°49.023 14.0537 3.934955 32.343254 28.748187
2006-06-07 04:31:05 51°15.786 2°48.988 14.0542 3.932637 32.331618 28.781896
2006-06-07 04:31:09 51°15.789 2°48.964 14.051 3.933375 32.347343 28.781896
2006-06-07 04:31:14 51°15.792 2°48.935 14.0418 3.931689 32.340218 28.849315
2006-06-07 04:31:19 51°15.794 2°48.905 14.0432 3.933797 32.367876 28.849315
2006-06-07 04:31:23 51°15.797 2°48.882 14.0353 3.933797 32.367876 28.849315
2006-06-07 04:31:29 51°15.8 2°48.846 14.0296 3.929687 32.33596 28.950443
2006-06-07 04:31:32 51°15.802 2°48.828 14.0387 3.932532 32.36911 28.950443
2006-06-07 04:31:39 51°15.806 2°48.787 14.0272 3.930425 32.352985 28.984153
2006-06-07 04:31:43 51°15.809 2°48.764 14.0264 3.927369 32.330723 29.051571
2006-06-07 04:31:49 51°15.814 2°48.729 14.0262 3.930952 32.368088 29.085281
2006-06-07 04:31:55 51°15.82 2°48.694 14.0155 3.930952 32.368088 29.085281
2006-06-07 04:31:59 51°15.823 2°48.671 14.0197 3.928212 32.346797 29.11899
2006-06-07 04:32:05 51°15.829 2°48.636 14.0176 3.929477 32.361612 29.085281
2006-06-07 04:32:09 51°15.833 2°48.613 14.0223 3.930636 32.372893 29.085281
2006-06-07 04:32:13 51°15.837 2°48.59 14.0198 3.930004 32.369017 29.085281
2006-06-07 04:32:19 51°15.842 2°48.555 14.0108 3.928739 32.361263 29.085281
2006-06-07 04:32:23 51°15.846 2°48.531 14.0134 3.928739 32.361263 29.085281
2006-06-07 04:32:28 51°15.85 2°48.502 14.017 3.929055 32.366735 29.085281
2006-06-07 04:32:33 51°15.854 2°48.473 14.0104 3.92621 32.345752 29.11899
2006-06-07 04:32:39 51°15.858 2°48.437 14.0124 3.935062 32.428321 29.1527
2006-06-07 04:32:43 51°15.861 2°48.413 14.017 3.929161 32.373485 29.1527
2006-06-07 04:32:49 51°15.865 2°48.377 14.0281 3.925999 32.345743 29.11899
2006-06-07 04:32:54 51°15.869 2°48.347 14.0208 3.925999 32.345743 29.11899
2006-06-07 04:32:59 51°15.873 2°48.318 14.0224 3.930847 32.392183 29.11899
2006-06-07 04:33:05 51°15.878 2°48.283 14.0253 3.935484 32.436701 29.1527
2006-06-07 04:33:09 51°15.882 2°48.259 14.0213 3.931901 32.405721 29.1527
2006-06-07 04:33:13 51°15.885 2°48.236 14.032 3.933692 32.422176 29.11899
2006-06-07 04:33:19 51°15.891 2°48.2 14.0268 3.92621 32.351532 29.1527
2006-06-07 04:33:24 51°15.896 2°48.171 14.0234 3.92621 32.351532 29.1527
2006-06-07 04:33:29 51°15.9 2°48.141 14.027 3.928528 32.368965 29.186409
2006-06-07 04:33:33 51°15.904 2°48.118 14.0331 3.938118 32.457035 29.186409
2006-06-07 04:33:39 51°15.909 2°48.082 14.0358 3.931163 32.391227 29.1527
2006-06-07 04:33:43 51°15.913 2°48.059 14.0227 3.931479 32.39413 29.186409
2006-06-07 04:33:49 51°15.919 2°48.023 14.0238 3.936116 32.434136 29.1527
2006-06-07 04:33:54 51°15.924 2°47.994 14.0262 3.936116 32.434136 29.1527
2006-06-07 04:33:59 51°15.93 2°47.965 14.0235 3.935378 32.428006 29.11899
2006-06-07 04:34:03 51°15.934 2°47.942 14.0307 3.9358 32.431877 29.085281
2006-06-07 04:34:08 51°15.941 2°47.913 14.0267 3.930847 32.384467 29.085281
2006-06-07 04:34:13 51°15.947 2°47.884 14.0357 3.938118 32.450593 29.11899
2006-06-07 04:34:19 51°15.954 2°47.85 14.0327 3.940015 32.470592 29.1527
2006-06-07 04:34:24 51°15.961 2°47.821 14.0344 3.940015 32.470592 29.1527
2006-06-07 04:34:29 51°15.967 2°47.793 14.0212 3.934851 32.424454 29.085281
2006-06-07 04:34:34 51°15.974 2°47.765 14.0149 3.937591 32.449618 29.11899
2006-06-07 04:34:39 51°15.98 2°47.736 14.01 3.938013 32.452846 29.11899
2006-06-07 04:34:45 51°15.988 2°47.702 14.0116 3.939699 32.467044 29.11899
2006-06-07 04:34:49 51°15.993 2°47.679 14.0055 3.938013 32.448337 29.1527
2006-06-07 04:34:53 51°15.997 2°47.656 14.0002 3.938013 32.448337 29.1527
2006-06-07 04:34:59 51°16.005 2°47.621 13.9988 3.938434 32.452208 29.1527
2006-06-07 04:35:04 51°16.01 2°47.592 13.9952 3.940542 32.472853 29.1527
2006-06-07 04:35:09 51°16.016 2°47.563 13.9914 3.934219 32.418648 29.1527
2006-06-07 04:35:14 51°16.022 2°47.535 13.9929 3.942228 32.497372 29.186409
2006-06-07 04:35:19 51°16.028 2°47.506 13.9862 3.943914 32.517384 29.186409
2006-06-07 04:35:25 51°16.034 2°47.471 13.9838 3.943914 32.517384 29.186409
2006-06-07 04:35:29 51°16.038 2°47.448 13.9743 3.944125 32.523196 29.186409
2006-06-07 04:35:33 51°16.043 2°47.425 13.9665 3.945811 32.541926 29.186409
2006-06-07 04:35:39 51°16.05 2°47.391 13.9567 3.949605 32.580687 29.220118
2006-06-07 04:35:44 51°16.056 2°47.363 13.9495 3.951502 32.602017 29.220118
2006-06-07 04:35:49 51°16.062 2°47.335 13.9371 3.951608 32.605578 29.287537
2006-06-07 04:35:53 51°16.067 2°47.313 13.9337 3.951608 32.605578 29.287537
2006-06-07 04:35:59 51°16.075 2°47.28 13.9191 3.953294 32.623681 29.253828
2006-06-07 04:36:03 51°16.08 2°47.258 13.9096 3.954137 32.635977 29.287537
2006-06-07 04:36:08 51°16.086 2°47.23 13.904 3.95477 32.648934 29.287537
2006-06-07 04:36:13 51°16.092 2°47.202 13.8961 3.954454 32.653166 29.287537
2006-06-07 04:36:19 51°16.099 2°47.169 13.9006 3.959407 32.70592 29.253828
2006-06-07 04:36:24 51°16.105 2°47.141 13.894 3.959407 32.70592 29.253828
2006-06-07 04:36:29 51°16.111 2°47.113 13.8884 3.961831 32.739966 29.287537
2006-06-07 04:36:35 51°16.119 2°47.08 13.8872 3.96299 32.757819 29.321247
2006-06-07 04:36:39 51°16.124 2°47.058 13.8769 3.966046 32.794473 29.321247
2006-06-07 04:36:45 51°16.131 2°47.025 13.8667 3.967733 32.817208 29.354956
2006-06-07 04:36:49 51°16.136 2°47.003 13.8593 3.969314 32.838982 29.354956
2006-06-07 04:36:53 51°16.141 2°46.981 13.8438 3.969314 32.838982 29.354956
2006-06-07 04:36:59 51°16.148 2°46.947 13.8336 3.970052 32.852987 29.388665
2006-06-07 04:37:05 51°16.155 2°46.914 13.8305 3.970473 32.862117 29.354956
2006-06-07 04:37:09 51°16.159 2°46.892 13.8351 3.970895 32.871249 29.388665
2006-06-07 04:37:13 51°16.163 2°46.87 13.8311 3.971106 32.878438 29.388665
2006-06-07 04:37:19 51°16.17 2°46.836 13.8185 3.971949 32.892781 29.388665
2006-06-07 04:37:23 51°16.174 2°46.814 13.8203 3.971949 32.892781 29.388665
2006-06-07 04:37:28 51°16.18 2°46.786 13.8172 3.97216 32.904572 29.422375
2006-06-07 04:37:33 51°16.185 2°46.759 13.812 3.970052 32.894293 29.422375
2006-06-07 04:37:39 51°16.192 2°46.725 13.8073 3.971844 32.916758 29.422375
2006-06-07 04:37:45 51°16.199 2°46.692 13.8112 3.971528 32.916465 29.456084
2006-06-07 04:37:48 51°16.203 2°46.676 13.8194 3.971106 32.91717 29.456084
2006-06-07 04:37:55 51°16.211 2°46.638 13.8057 3.971106 32.91717 29.456084
2006-06-07 04:37:59 51°16.216 2°46.616 13.8048 3.971001 32.924085 29.456084
2006-06-07 04:38:04 51°16.222 2°46.588 13.801 3.970579 32.923476 29.489794
2006-06-07 04:38:09 51°16.228 2°46.561 13.803 3.970369 32.924816 29.523503
2006-06-07 04:38:15 51°16.235 2°46.528 13.7963 3.969842 32.921917 29.523503
2006-06-07 04:38:19 51°16.24 2°46.507 13.8069 3.970053 32.925181 29.557212
2006-06-07 04:38:23 51°16.244 2°46.485 13.7972 3.970053 32.925181 29.557212
2006-06-07 04:38:29 51°16.251 2°46.452 13.7972 3.970263 32.928446 29.590922
2006-06-07 04:38:34 51°16.256 2°46.425 13.7963 3.970474 32.933686 29.624631
2006-06-07 04:38:39 51°16.261 2°46.397 13.7953 3.970474 32.935661 29.69205
2006-06-07 04:38:44 51°16.266 2°46.37 13.7986 3.970685 32.93761 29.69205
2006-06-07 04:38:49 51°16.271 2°46.342 13.7988 3.970685 32.940244 29.725759
2006-06-07 04:38:55 51°16.276 2°46.309 13.8002 3.970685 32.940244 29.725759
2006-06-07 04:38:59 51°16.28 2°46.287 13.7983 3.97079 32.942535 29.759469
2006-06-07 04:39:03 51°16.284 2°46.265 13.7903 3.971212 32.948411 29.793178
2006-06-07 04:39:08 51°16.289 2°46.237 13.7958 3.971423 32.952337 29.826888
2006-06-07 04:39:13 51°16.294 2°46.209 13.7987 3.971528 32.955288 29.826888
2006-06-07 04:39:19 51°16.3 2°46.177 13.7897 3.972055 32.959505 29.860597
2006-06-07 04:39:23 51°16.305 2°46.155 13.795 3.972055 32.959505 29.860597
2006-06-07 04:39:29 51°16.312 2°46.123 13.7958 3.97195 32.957871 29.894306
2006-06-07 04:39:34 51°16.318 2°46.096 13.787 3.972266 32.959479 29.961725
2006-06-07 04:39:39 51°16.325 2°46.07 13.7812 3.972371 32.96309 30.029144
2006-06-07 04:39:45 51°16.333 2°46.038 13.7847 3.972582 32.966358 30.029144
2006-06-07 04:39:49 51°16.338 2°46.017 13.7953 3.972793 32.968968 30.062853
2006-06-07 04:39:53 51°16.344 2°45.996 13.7838 3.972793 32.968968 30.062853
2006-06-07 04:39:59 51°16.353 2°45.965 13.7934 3.973004 32.971577 30.062853
2006-06-07 04:40:04 51°16.36 2°45.939 13.781 3.972898 32.968625 30.096563
2006-06-07 04:40:09 51°16.368 2°45.913 13.7773 3.973004 32.972237 30.062853
2006-06-07 04:40:13 51°16.374 2°45.892 13.7824 3.972793 32.972264 30.062853
2006-06-07 04:40:19 51°16.383 2°45.861 13.781 3.972898 32.973899 30.029144
2006-06-07 04:40:23 51°16.389 2°45.84 13.7724 3.972898 32.973899 30.029144
2006-06-07 04:40:29 51°16.398 2°45.808 13.7726 3.973004 32.977512 30.062853
2006-06-07 04:40:33 51°16.403 2°45.787 13.7771 3.973109 32.978487 30.029144
2006-06-07 04:40:39 51°16.412 2°45.756 13.7735 3.972793 32.975561 30.029144
2006-06-07 04:40:43 51°16.417 2°45.734 13.7781 3.973109 32.983105 29.995435
2006-06-07 04:40:49 51°16.426 2°45.703 13.7735 3.972582 32.980206 29.961725
2006-06-07 04:40:55 51°16.434 2°45.671 13.7702 3.972582 32.980206 29.961725
2006-06-07 04:40:59 51°16.44 2°45.65 13.7681 3.972899 32.984452 29.961725
2006-06-07 04:41:05 51°16.448 2°45.618 13.7713 3.972899 32.987752 29.894306
2006-06-07 04:41:09 51°16.454 2°45.597 13.7673 3.972688 32.98514 29.928016
2006-06-07 04:41:13 51°16.459 2°45.575 13.7742 3.972688 32.98514 29.928016
2006-06-07 04:41:19 51°16.467 2°45.543 13.7697 3.972899 32.986432 29.894306
2006-06-07 04:41:23 51°16.472 2°45.521 13.7606 3.972899 32.986432 29.894306
2006-06-07 04:41:29 51°16.479 2°45.489 13.7621 3.972793 32.986776 29.894306
2006-06-07 04:41:33 51°16.485 2°45.467 13.7703 3.972688 32.98844 29.894306
2006-06-07 04:41:39 51°16.493 2°45.435 13.7693 3.972583 32.988785 29.894306
2006-06-07 04:41:45 51°16.501 2°45.403 13.7601 3.972161 32.986201 29.894306
2006-06-07 04:41:49 51°16.506 2°45.382 13.7615 3.97195 32.982929 29.894306
2006-06-07 04:41:53 51°16.512 2°45.361 13.7642 3.97195 32.982929 29.894306
2006-06-07 04:42:00 51°16.522 2°45.324 13.7639 3.972161 32.986201 29.894306
2006-06-07 04:42:05 51°16.529 2°45.297 13.7604 3.971634 32.983962 29.894306
2006-06-07 04:42:09 51°16.534 2°45.276 13.7615 3.971318 32.981034 29.928016
2006-06-07 04:42:13 51°16.54 2°45.254 13.7646 3.971002 32.977446 29.894306
2006-06-07 04:42:19 51°16.548 2°45.222 13.7562 3.970791 32.976154 29.928016
2006-06-07 04:42:25 51°16.555 2°45.189 13.7628 3.970791 32.976154 29.928016
2006-06-07 04:42:29 51°16.56 2°45.167 13.7626 3.970159 32.971618 29.961725
2006-06-07 04:42:35 51°16.568 2°45.134 13.7606 3.969843 32.96935 29.961725
2006-06-07 04:42:39 51°16.573 2°45.112 13.7604 3.969526 32.966422 29.995435
2006-06-07 04:42:43 51°16.577 2°45.09 13.7692 3.96921 32.964814 30.029144
2006-06-07 04:42:48 51°16.584 2°45.063 13.7641 3.968894 32.961886 30.130272
2006-06-07 04:42:53 51°16.59 2°45.036 13.7543 3.968894 32.961886 30.130272
2006-06-07 04:42:59 51°16.598 2°45.004 13.747 3.968473 32.958642 30.130272
2006-06-07 04:43:05 51°16.607 2°44.972 13.7472 3.968578 32.958958 30.096563
2006-06-07 04:43:08 51°16.611 2°44.956 13.7466 3.968578 32.958958 30.130272
2006-06-07 04:43:15 51°16.622 2°44.92 13.749 3.968789 32.96157 30.130272
2006-06-07 04:43:19 51°16.629 2°44.9 13.7413 3.968894 32.960567 30.130272
2006-06-07 04:43:23 51°16.636 2°44.88 13.7259 3.968894 32.960567 30.130272
2006-06-07 04:43:29 51°16.646 2°44.849 13.7258 3.968999 32.962862 30.096563
2006-06-07 04:43:33 51°16.652 2°44.829 13.7233 3.969421 32.971385 30.096563
2006-06-07 04:43:39 51°16.662 2°44.798 13.712 3.969527 32.976322 30.096563
2006-06-07 04:43:43 51°16.669 2°44.777 13.7147 3.969737 32.980255 30.096563
2006-06-07 04:43:49 51°16.679 2°44.746 13.7171 3.969948 32.984189 30.062853
2006-06-07 04:43:53 51°16.685 2°44.726 13.7156 3.969948 32.984189 30.062853
2006-06-07 04:43:59 51°16.695 2°44.695 13.7112 3.970054 32.989129 30.096563
2006-06-07 04:44:05 51°16.705 2°44.664 13.7115 3.970054 32.995076 30.029144
2006-06-07 04:44:09 51°16.711 2°44.643 13.7011 3.969948 32.999387 30.029144
2006-06-07 04:44:13 51°16.717 2°44.622 13.7042 3.970054 33.004331 30.029144
2006-06-07 04:44:19 51°16.727 2°44.59 13.7153 3.970054 33.006977 29.995435
2006-06-07 04:44:25 51°16.736 2°44.559 13.7044 3.970054 33.006977 29.995435
2006-06-07 04:44:29 51°16.743 2°44.538 13.7056 3.969738 33.006691 29.961725
2006-06-07 04:44:33 51°16.749 2°44.517 13.7028 3.969738 33.008014 29.995435
2006-06-07 04:44:39 51°16.759 2°44.485 13.7 3.969632 33.010345 29.928016
2006-06-07 04:44:43 51°16.765 2°44.464 13.701 3.969632 33.012992 29.928016
2006-06-07 04:44:48 51°16.774 2°44.438 13.698 3.969422 33.011037 29.928016
2006-06-07 04:44:53 51°16.782 2°44.412 13.6953 3.969422 33.011037 29.928016
2006-06-07 04:44:59 51°16.792 2°44.38 13.6922 3.969738 33.014631 29.928016
2006-06-07 04:45:04 51°16.8 2°44.354 13.6899 3.970054 33.017563 29.928016
2006-06-07 04:45:09 51°16.807 2°44.327 13.6885 3.970159 33.02185 29.894306
2006-06-07 04:45:14 51°16.815 2°44.3 13.6914 3.970265 33.024814 29.894306
2006-06-07 04:45:19 51°16.823 2°44.273 13.679 3.971003 33.032319 29.894306
2006-06-07 04:45:24 51°16.83 2°44.246 13.6831 3.971003 33.032319 29.894306
2006-06-07 04:45:29 51°16.838 2°44.219 13.68 3.971319 33.037239 29.894306
2006-06-07 04:45:33 51°16.844 2°44.198 13.6817 3.97174 33.044463 29.894306
2006-06-07 04:45:39 51°16.854 2°44.165 13.6814 3.971951 33.049069 29.860597
2006-06-07 04:45:43 51°16.86 2°44.144 13.6856 3.972162 33.052351 29.894306
2006-06-07 04:45:49 51°16.87 2°44.112 13.6884 3.972162 33.055003 29.826888
2006-06-07 04:45:55 51°16.88 2°44.08 13.6858 3.972162 33.055003 29.826888
2006-06-07 04:45:59 51°16.886 2°44.058 13.6786 3.972267 33.058633 29.793178
2006-06-07 04:46:03 51°16.893 2°44.037 13.6844 3.972057 33.05734 29.793178
2006-06-07 04:46:09 51°16.903 2°44.005 13.6898 3.971846 33.056047 29.759469
2006-06-07 04:46:13 51°16.909 2°43.984 13.6847 3.971424 33.051472 29.759469
2006-06-07 04:46:19 51°16.919 2°43.952 13.6832 3.971108 33.047212 29.725759
2006-06-07 04:46:24 51°16.927 2°43.925 13.6832 3.971108 33.047212 29.725759
2006-06-07 04:46:28 51°16.933 2°43.904 13.6844 3.970687 33.041974 29.725759
2006-06-07 04:46:35 51°16.945 2°43.866 13.6891 3.969949 33.037117 29.69205
2006-06-07 04:46:39 51°16.952 2°43.845 13.6856 3.968579 33.025729 29.658341
2006-06-07 04:46:45 51°16.962 2°43.814 13.6866 3.96879 33.025697 29.658341
2006-06-07 04:46:49 51°16.97 2°43.794 13.6872 3.96742 33.013647 29.624631
2006-06-07 04:46:55 51°16.982 2°43.764 13.689 3.96742 33.013647 29.624631
2006-06-07 04:46:59 51°16.99 2°43.744 13.686 3.966998 33.009735 29.624631
2006-06-07 04:47:04 51°16.999 2°43.719 13.6851 3.965207 32.993774 29.624631
2006-06-07 04:47:09 51°17.008 2°43.694 13.6815 3.965417 32.995068 29.624631
2006-06-07 04:47:15 51°17.02 2°43.664 13.6821 3.96489 32.988856 29.590922
2006-06-07 04:47:19 51°17.027 2°43.644 13.6785 3.962888 32.970941 29.590922
2006-06-07 04:47:24 51°17.037 2°43.619 13.6737 3.962888 32.970941 29.590922
2006-06-07 04:47:28 51°17.045 2°43.599 13.6724 3.962783 32.968641 29.557212
2006-06-07 04:47:35 51°17.058 2°43.564 13.6806 3.962361 32.962747 29.557212
2006-06-07 04:47:39 51°17.066 2°43.544 13.6772 3.96215 32.962775 29.557212
2006-06-07 04:47:45 51°17.077 2°43.514 13.674 3.962361 32.966714 29.590922
2006-06-07 04:47:49 51°17.085 2°43.494 13.6724 3.962993 32.973903 29.590922
2006-06-07 04:47:55 51°17.096 2°43.463 13.6712 3.962993 32.973903 29.590922
2006-06-07 04:48:00 51°17.105 2°43.438 13.6641 3.963837 32.984372 29.590922
2006-06-07 04:48:05 51°17.115 2°43.412 13.6671 3.964364 32.993895 29.590922
2006-06-07 04:48:09 51°17.123 2°43.392 13.6555 3.965207 33.001057 29.590922
2006-06-07 04:48:13 51°17.13 2°43.372 13.6548 3.965523 33.003991 29.590922
2006-06-07 04:48:20 51°17.143 2°43.336 13.6447 3.965839 33.007587 29.590922
2006-06-07 04:48:25 51°17.152 2°43.311 13.6376 3.965839 33.007587 29.590922
2006-06-07 04:48:29 51°17.16 2°43.291 13.6334 3.966261 33.012825 29.590922
2006-06-07 04:48:33 51°17.166 2°43.27 13.6449 3.966682 33.02005 29.590922
2006-06-07 04:48:40 51°17.179 2°43.235 13.6317 3.967314 33.028571 29.590922
2006-06-07 04:48:45 51°17.188 2°43.209 13.6316 3.968158 33.04104 29.624631
2006-06-07 04:48:49 51°17.195 2°43.188 13.6265 3.969212 33.055471 29.624631
2006-06-07 04:48:53 51°17.203 2°43.168 13.6217 3.969212 33.055471 29.624631
2006-06-07 04:48:59 51°17.214 2°43.138 13.6185 3.97016 33.069591 29.624631
2006-06-07 04:49:05 51°17.226 2°43.109 13.6164 3.970898 33.078437 29.624631
2006-06-07 04:49:09 51°17.233 2°43.089 13.6139 3.972373 33.094802 29.590922
2006-06-07 04:49:13 51°17.241 2°43.069 13.6101 3.973427 33.107253 29.624631
2006-06-07 04:49:18 51°17.251 2°43.045 13.5996 3.974797 33.124642 29.624631
2006-06-07 04:49:25 51°17.265 2°43.01 13.6034 3.974797 33.124642 29.624631
2006-06-07 04:49:29 51°17.273 2°42.99 13.5973 3.975641 33.135806 29.658341
2006-06-07 04:49:35 51°17.284 2°42.96 13.5959 3.977116 33.152186 29.624631
2006-06-07 04:49:39 51°17.292 2°42.941 13.5913 3.97817 33.164649 29.69205
2006-06-07 04:49:43 51°17.299 2°42.921 13.5998 3.979224 33.178449 29.658341
2006-06-07 04:49:49 51°17.311 2°42.893 13.5962 3.980383 33.193232 29.658341
2006-06-07 04:49:55 51°17.322 2°42.863 13.5883 3.980383 33.193232 29.658341
2006-06-07 04:49:59 51°17.33 2°42.844 13.5976 3.981121 33.204767 29.658341
2006-06-07 04:50:03 51°17.338 2°42.825 13.595 3.981859 33.214969 29.69205
2006-06-07 04:50:09 51°17.351 2°42.798 13.5851 3.982596 33.223836 29.658341
2006-06-07 04:50:15 51°17.364 2°42.77 13.5837 3.982807 33.229139 29.658341
2006-06-07 04:50:20 51°17.375 2°42.746 13.5806 3.983334 33.236048 29.69205
2006-06-07 04:50:23 51°17.382 2°42.732 13.5771 3.983334 33.236048 29.69205
2006-06-07 04:50:29 51°17.395 2°42.704 13.5784 3.983861 33.242958 29.69205
2006-06-07 04:50:33 51°17.404 2°42.685 13.5751 3.984283 33.245544 29.69205
2006-06-07 04:50:39 51°17.417 2°42.656 13.5786 3.984494 33.250181 29.725759
2006-06-07 04:50:45 51°17.43 2°42.627 13.5837 3.985337 33.259366 29.69205
2006-06-07 04:50:49 51°17.438 2°42.606 13.5825 3.985653 33.264317 29.725759
2006-06-07 04:50:55 51°17.45 2°42.576 13.58 3.985653 33.264317 29.725759
2006-06-07 04:51:00 51°17.46 2°42.551 13.5851 3.985969 33.269268 29.69205
2006-06-07 04:51:03 51°17.466 2°42.536 13.586 3.986285 33.276229 29.69205
2006-06-07 04:51:09 51°17.478 2°42.507 13.5869 3.986707 33.282164 29.725759
2006-06-07 04:51:13 51°17.487 2°42.487 13.5833 3.98618 33.277927 29.725759
2006-06-07 04:51:19 51°17.5 2°42.458 13.5857 3.986496 33.278861 29.69205
2006-06-07 04:51:25 51°17.512 2°42.428 13.5853 3.986496 33.278861 29.69205
2006-06-07 04:51:29 51°17.521 2°42.409 13.5827 3.986918 33.282787 29.69205
2006-06-07 04:51:35 51°17.534 2°42.379 13.5817 3.987234 33.286401 29.69205
2006-06-07 04:51:38 51°17.54 2°42.365 13.5808 3.987128 33.28341 29.725759
2006-06-07 04:51:45 51°17.556 2°42.331 13.575 3.98755 33.286665 29.725759
2006-06-07 04:51:49 51°17.564 2°42.312 13.574 3.987972 33.28992 29.725759
2006-06-07 04:51:53 51°17.573 2°42.293 13.578 3.987972 33.28992 29.725759
2006-06-07 04:51:59 51°17.586 2°42.265 13.5727 3.988182 33.291883 29.69205
2006-06-07 04:52:05 51°17.6 2°42.236 13.5771 3.988709 33.297459 29.725759
2006-06-07 04:52:09 51°17.608 2°42.217 13.577 3.988815 33.299111 29.725759
2006-06-07 04:52:13 51°17.617 2°42.198 13.574 3.989552 33.305981 29.69205
2006-06-07 04:52:19 51°17.63 2°42.168 13.5725 3.989763 33.309954 29.725759
2006-06-07 04:52:23 51°17.638 2°42.149 13.5744 3.989763 33.309954 29.725759
2006-06-07 04:52:28 51°17.649 2°42.125 13.5712 3.989763 33.313306 29.725759
2006-06-07 04:52:35 51°17.664 2°42.091 13.5722 3.989869 33.314959 29.725759
2006-06-07 04:52:39 51°17.673 2°42.072 13.5724 3.989974 33.31594 29.725759
2006-06-07 04:52:44 51°17.684 2°42.048 13.5689 3.990185 33.317903 29.725759
2006-06-07 04:52:49 51°17.695 2°42.024 13.5715 3.990606 33.322501 29.759469
2006-06-07 04:52:53 51°17.704 2°42.005 13.5724 3.990606 33.322501 29.759469
2006-06-07 04:52:59 51°17.717 2°41.976 13.57 3.990712 33.324824 29.725759
2006-06-07 04:53:05 51°17.73 2°41.947 13.5748 3.990712 33.325495 29.725759
2006-06-07 04:53:09 51°17.739 2°41.928 13.5689 3.990817 33.326476 29.759469
2006-06-07 04:53:14 51°17.75 2°41.904 13.5722 3.990712 33.327507 29.725759
2006-06-07 04:53:19 51°17.76 2°41.88 13.5692 3.990712 33.326836 29.69205
2006-06-07 04:53:25 51°17.774 2°41.851 13.5659 3.990712 33.326836 29.69205
2006-06-07 04:53:29 51°17.782 2°41.832 13.5696 3.990606 33.326525 29.725759
2006-06-07 04:53:33 51°17.791 2°41.812 13.568 3.990501 33.324873 29.725759
2006-06-07 04:53:39 51°17.804 2°41.783 13.568 3.990501 33.325544 29.69205
2006-06-07 04:53:45 51°17.817 2°41.755 13.5728 3.990606 33.324513 29.69205
2006-06-07 04:53:49 51°17.826 2°41.736 13.5717 3.990817 33.326476 29.725759
2006-06-07 04:53:55 51°17.839 2°41.707 13.575 3.990817 33.326476 29.725759
2006-06-07 04:53:59 51°17.848 2°41.688 13.5728 3.99029 33.324251 29.759469
2006-06-07 04:54:04 51°17.859 2°41.664 13.576 3.989869 33.321666 29.725759
2006-06-07 04:54:09 51°17.87 2°41.641 13.5742 3.99029 33.324922 29.725759
2006-06-07 04:54:15 51°17.883 2°41.612 13.575 3.989869 33.319653 29.725759
2006-06-07 04:54:19 51°17.892 2°41.593 13.5725 3.989763 33.31733 29.725759
2006-06-07 04:54:24 51°17.903 2°41.569 13.5751 3.989763 33.31733 29.725759
2006-06-07 04:54:28 51°17.912 2°41.55 13.5724 3.989342 33.314745 29.725759
2006-06-07 04:54:35 51°17.927 2°41.517 13.5737 3.989026 33.310458 29.725759
2006-06-07 04:54:39 51°17.936 2°41.498 13.5724 3.988709 33.306173 29.69205
2006-06-07 04:54:45 51°17.949 2°41.469 13.5724 3.988604 33.304521 29.69205
2006-06-07 04:54:49 51°17.958 2°41.45 13.5774 3.988182 33.301265 29.69205
2006-06-07 04:54:55 51°17.971 2°41.421 13.573 3.988182 33.301265 29.69205
2006-06-07 04:54:59 51°17.979 2°41.402 13.5852 3.987866 33.29832 29.69205
2006-06-07 04:55:03 51°17.988 2°41.383 13.5839 3.987445 33.295064 29.725759
2006-06-07 04:55:09 51°18.001 2°41.354 13.598 3.986391 33.285249 29.725759
2006-06-07 04:55:13 51°18.01 2°41.335 13.6032 3.985442 33.277085 29.69205
2006-06-07 04:55:19 51°18.023 2°41.307 13.6113 3.984494 33.268252 29.69205
2006-06-07 04:55:23 51°18.032 2°41.288 13.6116 3.984494 33.268252 29.69205
2006-06-07 04:55:29 51°18.044 2°41.259 13.6179 3.983756 33.261381 29.69205
2006-06-07 04:55:34 51°18.055 2°41.234 13.6217 3.98207 33.244341 29.69205
2006-06-07 04:55:39 51°18.066 2°41.211 13.629 3.981754 33.237383 29.69205
2006-06-07 04:55:45 51°18.079 2°41.183 13.6326 3.981754 33.231363 29.69205
2006-06-07 04:55:49 51°18.088 2°41.164 13.6255 3.981964 33.225972 29.658341
2006-06-07 04:55:54 51°18.099 2°41.14 13.6247 3.981964 33.225972 29.658341
2006-06-07 04:55:59 51°18.11 2°41.116 13.6192 3.98228 33.223567 29.658341
2006-06-07 04:56:05 51°18.122 2°41.087 13.6159 3.983334 33.227359 29.69205
2006-06-07 04:56:09 51°18.131 2°41.068 13.6024 3.983439 33.222995 29.658341
2006-06-07 04:56:12 51°18.137 2°41.053 13.5951 3.983861 33.222242 29.658341
2006-06-07 04:56:19 51°18.152 2°41.02 13.5782 3.984493 33.224116 29.69205
2006-06-07 04:56:24 51°18.163 2°40.996 13.5681 3.984493 33.224116 29.69205
2006-06-07 04:56:29 51°18.173 2°40.972 13.5645 3.984493 33.224784 29.69205
2006-06-07 04:56:35 51°18.186 2°40.944 13.5435 3.984809 33.231064 29.69205
2006-06-07 04:56:39 51°18.195 2°40.925 13.5407 3.985442 33.23895 29.69205
2006-06-07 04:56:45 51°18.208 2°40.896 13.5282 3.986496 33.254102 29.69205
2006-06-07 04:56:49 51°18.216 2°40.878 13.5228 3.987234 33.269662 29.725759
2006-06-07 04:56:53 51°18.225 2°40.858 13.5148 3.987234 33.269662 29.725759
2006-06-07 04:56:59 51°18.238 2°40.83 13.5123 3.989342 33.299327 29.725759
2006-06-07 04:57:04 51°18.248 2°40.806 13.5026 3.991766 33.334641 29.759469
2006-06-07 04:57:09 51°18.259 2°40.782 13.5124 3.994822 33.375206 29.759469
2006-06-07 04:57:14 51°18.27 2°40.758 13.5005 3.997141 33.405562 29.826888
2006-06-07 04:57:18 51°18.278 2°40.739 13.4986 3.998933 33.429674 29.826888
2006-06-07 04:57:24 51°18.291 2°40.71 13.4933 3.998933 33.429674 29.826888
2006-06-07 04:57:29 51°18.302 2°40.686 13.4933 4.00083 33.45613 29.826888
2006-06-07 04:57:34 51°18.313 2°40.662 13.4952 4.002095 33.475352 29.826888
2006-06-07 04:57:40 51°18.326 2°40.633 13.4888 4.003886 33.49815 29.793178
2006-06-07 04:57:44 51°18.334 2°40.614 13.4901 4.004835 33.511735 29.826888
2006-06-07 04:57:49 51°18.345 2°40.59 13.493 4.006205 33.526555 29.826888
2006-06-07 04:57:55 51°18.358 2°40.561 13.4946 4.006205 33.526555 29.826888
2006-06-07 04:57:58 51°18.364 2°40.547 13.4948 4.00747 33.541746 29.826888
2006-06-07 04:58:03 51°18.375 2°40.523 13.4928 4.008735 33.556942 29.826888
2006-06-07 04:58:09 51°18.388 2°40.494 13.4898 4.01021 33.573433 29.826888
2006-06-07 04:58:14 51°18.399 2°40.471 13.4916 4.011475 33.588636 29.860597
2006-06-07 04:58:19 51°18.41 2°40.448 13.4859 4.012318 33.597191 29.826888
2006-06-07 04:58:25 51°18.423 2°40.419 13.4837 4.012318 33.597191 29.826888
2006-06-07 04:58:28 51°18.43 2°40.405 13.4894 4.013372 33.607038 29.793178
2006-06-07 04:58:35 51°18.446 2°40.372 13.4904 4.013793 33.609621 29.826888
2006-06-07 04:58:39 51°18.455 2°40.354 13.4885 4.01411 33.612575 29.793178
2006-06-07 04:58:44 51°18.465 2°40.33 13.4854 4.014637 33.617499 29.826888
2006-06-07 04:58:50 51°18.478 2°40.302 13.4911 4.014847 33.621504 29.793178
2006-06-07 04:58:52 51°18.482 2°40.292 13.4872 4.014847 33.621504 29.793178
2006-06-07 04:58:59 51°18.498 2°40.259 13.4846 4.014637 33.620213 29.759469
2006-06-07 04:59:04 51°18.509 2°40.235 13.4923 4.014531 33.619228 29.759469
2006-06-07 04:59:09 51°18.52 2°40.211 13.4879 4.014531 33.620585 29.759469
2006-06-07 04:59:13 51°18.529 2°40.193 13.4818 4.014531 33.621942 29.759469
2006-06-07 04:59:19 51°18.542 2°40.164 13.484 4.01432 33.618615 29.759469
2006-06-07 04:59:24 51°18.553 2°40.14 13.4871 4.01432 33.618615 29.759469
2006-06-07 04:59:29 51°18.564 2°40.116 13.4854 4.014004 33.613625 29.759469
2006-06-07 04:59:35 51°18.577 2°40.087 13.4799 4.014215 33.616273 29.759469
2006-06-07 04:59:38 51°18.584 2°40.073 13.485 4.014531 33.619228 29.759469
2006-06-07 04:59:44 51°18.597 2°40.043 13.4871 4.014637 33.620891 29.793178
2006-06-07 04:59:49 51°18.607 2°40.019 13.4802 4.01295 33.607847 29.759469
2006-06-07 04:59:54 51°18.618 2°39.995 13.4836 4.01295 33.607847 29.759469
2006-06-07 05:00:00 51°18.631 2°39.966 13.4888 4.01548 33.632164 29.793178
2006-06-07 05:00:05 51°18.642 2°39.942 13.4857 4.015796 33.635798 29.759469
2006-06-07 05:00:08 51°18.649 2°39.928 13.4899 4.016112 33.640111 29.793178
2006-06-07 05:00:15 51°18.665 2°39.895 13.4861 4.016323 33.642761 29.759469
2006-06-07 05:00:19 51°18.674 2°39.876 13.4926 4.016323 33.642081 29.759469
2006-06-07 05:00:24 51°18.685 2°39.852 13.4831 4.016323 33.642081 29.759469
2006-06-07 05:00:29 51°18.696 2°39.828 13.4925 4.016323 33.642761 29.793178
2006-06-07 05:00:35 51°18.709 2°39.8 13.4951 4.016639 33.644358 29.759469
2006-06-07 05:00:40 51°18.72 2°39.776 13.4934 4.016323 33.640723 29.759469
2006-06-07 05:00:44 51°18.729 2°39.758 13.4884 4.016323 33.638686 29.725759
2006-06-07 05:00:48 51°18.738 2°39.739 13.4971 4.016428 33.638992 29.759469
2006-06-07 05:00:55 51°18.753 2°39.706 13.4931 4.016428 33.638992 29.759469
2006-06-07 05:00:59 51°18.762 2°39.687 13.4869 4.016112 33.636716 29.725759
2006-06-07 05:01:04 51°18.774 2°39.664 13.4813 4.01548 33.630806 29.725759
2006-06-07 05:01:09 51°18.784 2°39.64 13.4799 4.014742 33.621197 29.725759
2006-06-07 05:01:15 51°18.798 2°39.612 13.4799 4.01432 33.61658 29.725759
2006-06-07 05:01:20 51°18.809 2°39.589 13.4799 4.014426 33.616886 29.725759
2006-06-07 05:01:24 51°18.818 2°39.57 13.4794 4.014426 33.616886 29.725759
2006-06-07 05:01:29 51°18.829 2°39.546 13.4799 4.014742 33.619162 29.725759
2006-06-07 05:01:34 51°18.84 2°39.522 13.4823 4.014953 33.622488 29.725759
2006-06-07 05:01:39 51°18.851 2°39.499 13.4818 4.016112 33.635358 29.793178
2006-06-07 05:01:44 51°18.862 2°39.475 13.4824 4.017061 33.647619 29.759469
2006-06-07 05:01:49 51°18.873 2°39.451 13.4746 4.017377 33.653291 29.759469
2006-06-07 05:01:53 51°18.881 2°39.432 13.4751 4.017377 33.653291 29.759469
2006-06-07 05:01:59 51°18.894 2°39.403 13.4769 4.017588 33.656621 29.759469
2006-06-07 05:02:05 51°18.907 2°39.374 13.4742 4.01822 33.663891 29.793178
2006-06-07 05:02:09 51°18.916 2°39.356 13.4764 4.018536 33.665488 29.759469
2006-06-07 05:02:13 51°18.925 2°39.337 13.4744 4.018431 33.664502 29.793178
2006-06-07 05:02:19 51°18.938 2°39.308 13.4714 4.01822 33.663212 29.725759
2006-06-07 05:02:24 51°18.95 2°39.285 13.4656 4.01822 33.663212 29.725759
2006-06-07 05:02:29 51°18.961 2°39.261 13.4654 4.017799 33.661989 29.725759
2006-06-07 05:02:34 51°18.972 2°39.238 13.4688 4.018115 33.664945 29.725759
2006-06-07 05:02:38 51°18.981 2°39.219 13.4665 4.017588 33.660018 29.725759
2006-06-07 05:02:44 51°18.994 2°39.19 13.4642 4.017377 33.658727 29.759469
2006-06-07 05:02:49 51°19.006 2°39.167 13.4668 4.017272 33.659101 29.759469
2006-06-07 05:02:55 51°19.019 2°39.138 13.467 4.017272 33.659101 29.759469
2006-06-07 05:03:00 51°19.03 2°39.114 13.4563 4.016639 33.655228 29.725759
2006-06-07 05:03:04 51°19.039 2°39.096 13.4521 4.015796 33.649383 29.725759
2006-06-07 05:03:09 51°19.05 2°39.072 13.4532 4.015375 33.646801 29.759469
2006-06-07 05:03:15 51°19.063 2°39.043 13.4545 4.014637 33.641262 29.725759
2006-06-07 05:03:19 51°19.072 2°39.024 13.4474 4.013899 33.635722 29.759469
2006-06-07 05:03:25 51°19.085 2°38.996 13.441 4.013899 33.635722 29.759469
2006-06-07 05:03:29 51°19.094 2°38.977 13.4378 4.013056 33.627838 29.725759
2006-06-07 05:03:33 51°19.102 2°38.958 13.4308 4.012213 33.620634 29.725759
2006-06-07 05:03:39 51°19.115 2°38.929 13.4223 4.010421 33.609313 29.725759
2006-06-07 05:03:44 51°19.126 2°38.905 13.4164 4.009051 33.599217 29.759469
2006-06-07 05:03:49 51°19.136 2°38.881 13.4184 4.008524 33.594968 29.725759
2006-06-07 05:03:55 51°19.149 2°38.853 13.4178 4.008524 33.594968 29.725759
2006-06-07 05:03:59 51°19.157 2°38.833 13.4132 4.007997 33.594113 29.725759
2006-06-07 05:04:05 51°19.169 2°38.805 13.4155 4.007681 33.596588 29.759469
2006-06-07 05:04:09 51°19.177 2°38.785 13.4176 4.007892 33.603992 29.759469
2006-06-07 05:04:14 51°19.188 2°38.761 13.4122 4.008841 33.616944 29.793178
2006-06-07 05:04:20 51°19.2 2°38.733 13.419 4.010527 33.638843 29.793178
2006-06-07 05:04:25 51°19.211 2°38.709 13.4322 4.010527 33.638843 29.793178
2006-06-07 05:04:28 51°19.217 2°38.695 13.4257 4.013267 33.667213 29.860597
2006-06-07 05:04:35 51°19.232 2°38.662 13.4277 4.016218 33.698246 29.894306
2006-06-07 05:04:39 51°19.241 2°38.643 13.4325 4.019486 33.728839 29.928016
2006-06-07 05:04:44 51°19.251 2°38.62 13.4408 4.021804 33.751918 29.928016
2006-06-07 05:04:49 51°19.262 2°38.597 13.4389 4.02465 33.779253 29.961725
2006-06-07 05:04:55 51°19.274 2°38.569 13.4483 4.02465 33.779253 29.961725
2006-06-07 05:04:59 51°19.283 2°38.55 13.4472 4.026547 33.793606 29.928016
2006-06-07 05:05:05 51°19.295 2°38.521 13.464 4.028866 33.812589 29.961725
2006-06-07 05:05:08 51°19.301 2°38.507 13.4553 4.030552 33.826332 29.995435
2006-06-07 05:05:15 51°19.316 2°38.473 13.4539 4.032238 33.838022 29.961725
2006-06-07 05:05:19 51°19.324 2°38.454 13.4593 4.033608 33.847433 29.961725
2006-06-07 05:05:24 51°19.335 2°38.43 13.4586 4.033608 33.847433 29.961725
2006-06-07 05:05:29 51°19.345 2°38.407 13.4551 4.034978 33.858212 29.928016
2006-06-07 05:05:35 51°19.358 2°38.379 13.4543 4.035611 33.860027 29.928016
2006-06-07 05:05:40 51°19.368 2°38.355 13.4608 4.036348 33.86146 29.961725
2006-06-07 05:05:44 51°19.377 2°38.337 13.459 4.037297 33.86692 29.928016
2006-06-07 05:05:48 51°19.385 2°38.318 13.458 4.03814 33.874814 29.928016
2006-06-07 05:05:55 51°19.4 2°38.286 13.4565 4.03814 33.874814 29.928016
2006-06-07 05:05:59 51°19.409 2°38.267 13.4629 4.038772 33.877997 29.928016
2006-06-07 05:06:04 51°19.419 2°38.243 13.4562 4.039088 33.879588 29.928016
2006-06-07 05:06:09 51°19.43 2°38.22 13.4618 4.03951 33.884905 29.928016
2006-06-07 05:06:15 51°19.442 2°38.192 13.4675 4.03951 33.88422 29.894306
2006-06-07 05:06:20 51°19.452 2°38.168 13.469 4.039826 33.886496 29.928016
2006-06-07 05:06:24 51°19.461 2°38.149 13.4732 4.039826 33.886496 29.928016
2006-06-07 05:06:28 51°19.469 2°38.13 13.4768 4.039721 33.886194 29.894306
2006-06-07 05:06:35 51°19.483 2°38.097 13.4761 4.040037 33.887785 29.894306
2006-06-07 05:06:39 51°19.491 2°38.078 13.4839 4.040037 33.8871 29.860597
2006-06-07 05:06:44 51°19.502 2°38.054 13.4843 4.040142 33.887402 29.894306
2006-06-07 05:06:49 51°19.512 2°38.03 13.4871 4.040248 33.884281 29.860597
2006-06-07 05:06:55 51°19.525 2°38.003 13.4857 4.040248 33.884281 29.860597
2006-06-07 05:07:00 51°19.536 2°37.98 13.4941 4.040564 33.884503 29.860597
2006-06-07 05:07:05 51°19.548 2°37.957 13.4918 4.040669 33.882751 29.860597
2006-06-07 05:07:08 51°19.554 2°37.943 13.4944 4.041196 33.884262 29.860597
2006-06-07 05:07:15 51°19.57 2°37.912 13.4969 4.041512 33.883799 29.860597
2006-06-07 05:07:19 51°19.579 2°37.895 13.4936 4.041934 33.885692 29.860597
2006-06-07 05:07:24 51°19.59 2°37.872 13.4946 4.041934 33.885692 29.860597
2006-06-07 05:07:29 51°19.602 2°37.849 13.4919 4.042355 33.887584 29.860597
2006-06-07 05:07:35 51°19.615 2°37.823 13.4954 4.042672 33.887806 29.860597
2006-06-07 05:07:40 51°19.626 2°37.8 13.4939 4.043198 33.889316 29.860597
2006-06-07 05:07:44 51°19.635 2°37.782 13.4966 4.043831 33.89318 29.860597
2006-06-07 05:07:49 51°19.646 2°37.759 13.4939 4.044147 33.895454 29.860597
2006-06-07 05:07:55 51°19.659 2°37.731 13.4948 4.044147 33.895454 29.860597
2006-06-07 05:07:59 51°19.668 2°37.712 13.4966 4.044674 33.901753 29.860597
2006-06-07 05:08:05 51°19.681 2°37.684 13.4961 4.044779 33.902054 29.894306
2006-06-07 05:08:09 51°19.69 2°37.665 13.5017 4.04499 33.904027 29.860597
2006-06-07 05:08:13 51°19.699 2°37.647 13.5027 4.044885 33.902356 29.860597
2006-06-07 05:08:19 51°19.712 2°37.62 13.4961 4.04499 33.903342 29.894306
2006-06-07 05:08:24 51°19.723 2°37.596 13.5006 4.04499 33.903342 29.894306
2006-06-07 05:08:29 51°19.734 2°37.574 13.4936 4.045096 33.905013 29.860597
2006-06-07 05:08:34 51°19.745 2°37.552 13.494 4.045306 33.906301 29.894306
2006-06-07 05:08:39 51°19.756 2°37.53 13.4921 4.045833 33.909862 29.860597
2006-06-07 05:08:45 51°19.768 2°37.506 13.4914 4.045728 33.906139 29.894306
2006-06-07 05:08:49 51°19.775 2°37.491 13.4916 4.045622 33.905153 29.860597
2006-06-07 05:08:55 51°19.786 2°37.468 13.4962 4.045622 33.905153 29.860597
2006-06-07 05:09:00 51°19.796 2°37.451 13.4953 4.046044 33.909097 29.894306
2006-06-07 05:09:05 51°19.805 2°37.433 13.4951 4.046466 33.913725 29.860597
2006-06-07 05:09:08 51°19.81 2°37.423 13.4883 4.046571 33.916765 29.894306
2006-06-07 05:09:15 51°19.822 2°37.398 13.4911 4.046887 33.921092 29.894306
2006-06-07 05:09:19 51°19.829 2°37.385 13.4952 4.046993 33.923448 29.894306
2006-06-07 05:09:24 51°19.837 2°37.368 13.501 4.046993 33.923448 29.894306
2006-06-07 05:09:29 51°19.845 2°37.352 13.4982 4.047098 33.923749 29.894306
2006-06-07 05:09:35 51°19.853 2°37.334 13.4941 4.046887 33.921777 29.894306
2006-06-07 05:09:40 51°19.859 2°37.32 13.5022 4.047414 33.926023 29.894306
2006-06-07 05:09:45 51°19.865 2°37.306 13.4937 4.047309 33.925722 29.894306
2006-06-07 05:09:48 51°19.868 2°37.298 13.4925 4.04752 33.929064 29.894306
2006-06-07 05:09:55 51°19.876 2°37.279 13.4864 4.04752 33.929064 29.894306
2006-06-07 05:09:59 51°19.88 2°37.269 13.4846 4.047414 33.926023 29.894306
2006-06-07 05:10:04 51°19.885 2°37.256 13.4843 4.047414 33.923969 29.860597
2006-06-07 05:10:09 51°19.89 2°37.244 13.4817 4.047836 33.927229 29.894306
2006-06-07 05:10:15 51°19.895 2°37.23 13.4791 4.047836 33.926544 29.894306
2006-06-07 05:10:20 51°19.899 2°37.218 13.4713 4.047836 33.927913 29.928016
2006-06-07 05:10:24 51°19.903 2°37.209 13.4663 4.047836 33.927913 29.928016
2006-06-07 05:10:28 51°19.906 2°37.2 13.4684 4.047941 33.931639 29.894306
2006-06-07 05:10:35 51°19.912 2°37.185 13.4684 4.047941 33.935064 29.928016
2006-06-07 05:10:39 51°19.915 2°37.176 13.4749 4.047836 33.937504 29.928016
2006-06-07 05:10:44 51°19.919 2°37.166 13.4635 4.047731 33.939258 29.928016
2006-06-07 05:10:49 51°19.923 2°37.155 13.4597 4.047836 33.942301 29.928016
2006-06-07 05:10:53 51°19.926 2°37.147 13.4558 4.047836 33.942301 29.928016
2006-06-07 05:10:59 51°19.93 2°37.135 13.4558 4.047731 33.946113 29.961725
2006-06-07 05:11:04 51°19.934 2°37.126 13.4554 4.047941 33.949458 29.961725
2006-06-07 05:11:09 51°19.938 2°37.116 13.4538 4.048152 33.953489 29.928016
2006-06-07 05:11:13 51°19.94 2°37.11 13.4532 4.047942 33.951515 29.928016
2006-06-07 05:11:19 51°19.944 2°37.099 13.452 4.048363 33.95752 29.928016
2006-06-07 05:11:25 51°19.948 2°37.09 13.4516 4.048363 33.95752 29.928016
2006-06-07 05:11:29 51°19.95 2°37.084 13.4547 4.048363 33.961637 29.894306
2006-06-07 05:11:34 51°19.953 2°37.077 13.4548 4.048679 33.966657 29.961725
2006-06-07 05:11:40 51°19.956 2°37.07 13.4516 4.048363 33.965754 29.894306
2006-06-07 05:11:45 51°19.958 2°37.064 13.451 4.048258 33.964767 29.928016
2006-06-07 05:11:50 51°19.96 2°37.059 13.4525 4.048152 33.965839 29.928016
2006-06-07 05:11:52 51°19.961 2°37.057 13.4513 4.048152 33.965839 29.928016
2006-06-07 05:11:59 51°19.963 2°37.05 13.4519 4.048469 33.969487 29.961725
2006-06-07 05:12:05 51°19.965 2°37.045 13.4508 4.048153 33.967898 29.894306
2006-06-07 05:12:09 51°19.967 2°37.043 13.4525 4.048153 33.967898 29.928016
2006-06-07 05:12:13 51°19.968 2°37.04 13.4542 4.048047 33.968284 29.894306
2006-06-07 05:12:19 51°19.971 2°37.035 13.4494 4.048047 33.968971 29.894306
2006-06-07 05:12:24 51°19.972 2°37.032 13.4477 4.048047 33.968971 29.894306
2006-06-07 05:12:28 51°19.974 2°37.029 13.4452 4.047942 33.967983 29.928016
2006-06-07 05:12:35 51°19.976 2°37.025 13.4473 4.048153 33.969271 29.928016
2006-06-07 05:12:39 51°19.977 2°37.023 13.4516 4.048153 33.968585 29.928016
2006-06-07 05:12:44 51°19.978 2°37.02 13.4519 4.047942 33.967297 29.894306
2006-06-07 05:12:49 51°19.979 2°37.017 13.4516 4.048469 33.972233 29.928016
2006-06-07 05:12:55 51°19.981 2°37.013 13.4536 4.048469 33.972233 29.928016
2006-06-07 05:13:00 51°19.982 2°37.011 13.4522 4.048469 33.97292 29.894306
2006-06-07 05:13:04 51°19.983 2°37.008 13.4514 4.048469 33.974293 29.928016
2006-06-07 05:13:08 51°19.984 2°37.006 13.4534 4.048258 33.973005 29.894306
2006-06-07 05:13:15 51°19.985 2°37.003 13.4498 4.048469 33.973606 29.928016
2006-06-07 05:13:19 51°19.986 2°37.001 13.451 4.048469 33.974293 29.928016
2006-06-07 05:13:24 51°19.986 2°36.998 13.4492 4.048469 33.974293 29.928016
2006-06-07 05:13:29 51°19.987 2°36.996 13.4502 4.048153 33.970644 29.894306
2006-06-07 05:13:35 51°19.988 2°36.993 13.4501 4.048153 33.969271 29.894306
2006-06-07 05:13:40 51°19.989 2°36.991 13.4503 4.048047 33.969657 29.894306
2006-06-07 05:13:45 51°19.989 2°36.989 13.4485 4.048153 33.970644 29.894306
2006-06-07 05:13:48 51°19.989 2°36.987 13.4537 4.048363 33.971933 29.860597
2006-06-07 05:13:55 51°19.99 2°36.984 13.4501 4.048363 33.971933 29.860597
2006-06-07 05:14:00 51°19.991 2°36.982 13.4485 4.048047 33.969657 29.860597
2006-06-07 05:14:04 51°19.991 2°36.98 13.45 4.048153 33.970644 29.894306
2006-06-07 05:14:09 51°19.992 2°36.978 13.4547 4.048363 33.972619 29.894306
2006-06-07 05:14:15 51°19.992 2°36.976 13.4522 4.048363 33.973993 29.860597
2006-06-07 05:14:20 51°19.993 2°36.974 13.4518 4.048363 33.973993 29.894306
2006-06-07 05:14:24 51°19.993 2°36.973 13.4513 4.048363 33.973993 29.894306
2006-06-07 05:14:29 51°19.994 2°36.971 13.4527 4.048363 33.973306 29.860597
2006-06-07 05:14:34 51°19.994 2°36.969 13.4512 4.048469 33.973606 29.860597
2006-06-07 05:14:39 51°19.995 2°36.967 13.4525 4.048574 33.974594 29.860597
2006-06-07 05:14:44 51°19.995 2°36.965 13.4546 4.048679 33.973521 29.860597
2006-06-07 05:14:49 51°19.995 2°36.963 13.4507 4.048574 33.971161 29.894306
2006-06-07 05:14:55 51°19.996 2°36.961 13.4592 4.048574 33.971161 29.894306
2006-06-07 05:14:59 51°19.996 2°36.96 13.4543 4.048574 33.973221 29.860597
2006-06-07 05:15:05 51°19.996 2°36.958 13.4563 4.048469 33.971547 29.894306
2006-06-07 05:15:09 51°19.996 2°36.956 13.4505 4.048363 33.971246 29.860597
2006-06-07 05:15:15 51°19.997 2°36.954 13.4517 4.048363 33.971246 29.860597
2006-06-07 05:15:19 51°19.997 2°36.953 13.4511 4.048469 33.97086 29.860597
2006-06-07 05:15:24 51°19.997 2°36.951 13.4542 4.048469 33.97086 29.860597
2006-06-07 05:15:29 51°19.997 2°36.949 13.4522 4.048363 33.9685 29.860597
2006-06-07 05:15:35 51°19.997 2°36.947 13.4539 4.048469 33.968801 29.826888
2006-06-07 05:15:40 51°19.997 2°36.945 13.4535 4.048574 33.970474 29.860597
2006-06-07 05:15:43 51°19.998 2°36.944 13.4594 4.048574 33.971161 29.860597
2006-06-07 05:15:49 51°19.998 2°36.942 13.4543 4.048574 33.970474 29.860597
2006-06-07 05:15:53 51°19.998 2°36.941 13.4568 4.048574 33.970474 29.860597
2006-06-07 05:15:59 51°19.998 2°36.939 13.4529 4.048258 33.967513 29.860597
2006-06-07 05:16:05 51°19.998 2°36.937 13.4544 4.048574 33.970474 29.860597
2006-06-07 05:16:09 51°19.998 2°36.936 13.4512 4.048574 33.969788 29.826888
2006-06-07 05:16:13 51°19.998 2°36.935 13.4528 4.048469 33.969487 29.860597
2006-06-07 05:16:19 51°19.998 2°36.933 13.4532 4.048152 33.966525 29.860597
2006-06-07 05:16:25 51°19.998 2°36.93 13.4533 4.048152 33.966525 29.860597
2006-06-07 05:16:29 51°19.998 2°36.929 13.4524 4.048153 33.967898 29.860597
2006-06-07 05:16:33 51°19.998 2°36.928 13.455 4.048047 33.966911 29.826888
2006-06-07 05:16:39 51°19.998 2°36.926 13.4527 4.048047 33.966225 29.894306
2006-06-07 05:16:44 51°19.998 2°36.925 13.4514 4.047836 33.964937 29.860597
2006-06-07 05:16:49 51°19.998 2°36.923 13.4533 4.047942 33.965924 29.860597
2006-06-07 05:16:53 51°19.997 2°36.922 13.4545 4.047942 33.965924 29.860597
2006-06-07 05:16:59 51°19.997 2°36.92 13.4526 4.047942 33.965924 29.894306
2006-06-07 05:17:04 51°19.997 2°36.918 13.4537 4.047731 33.963949 29.894306
2006-06-07 05:17:09 51°19.997 2°36.917 13.4499 4.048047 33.966225 29.860597
2006-06-07 05:17:12 51°19.997 2°36.916 13.4553 4.047942 33.965237 29.860597
2006-06-07 05:17:19 51°19.997 2°36.913 13.4505 4.048152 33.967212 29.894306
2006-06-07 05:17:24 51°19.996 2°36.912 13.4546 4.048152 33.967212 29.894306
2006-06-07 05:17:29 51°19.996 2°36.91 13.4511 4.048047 33.965538 29.894306
2006-06-07 05:17:35 51°19.996 2°36.908 13.4548 4.048047 33.966225 29.894306
2006-06-07 05:17:39 51°19.996 2°36.908 13.4516 4.048152 33.967212 29.860597
2006-06-07 05:17:45 51°19.995 2°36.905 13.4538 4.047942 33.965924 29.894306
2006-06-07 05:17:49 51°19.995 2°36.905 13.4556 4.047942 33.965924 29.860597
2006-06-07 05:17:55 51°19.995 2°36.902 13.4534 4.047942 33.965924 29.860597
2006-06-07 05:18:00 51°19.995 2°36.901 13.4581 4.047942 33.965924 29.894306
2006-06-07 05:18:05 51°19.994 2°36.899 13.4514 4.048153 33.967898 29.860597
2006-06-07 05:18:08 51°19.994 2°36.899 13.4484 4.047836 33.965623 29.860597
2006-06-07 05:18:15 51°19.994 2°36.896 13.4499 4.048047 33.967598 29.860597
2006-06-07 05:18:19 51°19.994 2°36.896 13.4494 4.047415 33.96236 29.894306
2006-06-07 05:18:24 51°19.993 2°36.894 13.4506 4.047415 33.96236 29.894306
2006-06-07 05:18:28 51°19.993 2°36.893 13.4475 4.047626 33.964335 29.894306
2006-06-07 05:18:35 51°19.993 2°36.891 13.4472 4.048153 33.967898 29.860597
2006-06-07 05:18:39 51°19.992 2°36.89 13.4471 4.047942 33.965924 29.894306
2006-06-07 05:18:45 51°19.992 2°36.888 13.4454 4.047731 33.966695 29.894306
2006-06-07 05:18:49 51°19.992 2°36.887 13.4449 4.047204 33.963132 29.894306
2006-06-07 05:18:55 51°19.991 2°36.885 13.4476 4.047204 33.963132 29.894306
2006-06-07 05:18:59 51°19.991 2°36.884 13.4481 4.205729 35.252723 29.894306
2006-06-07 05:19:04 51°19.99 2°36.882 13.4507 4.047626 33.968454 29.894306
2006-06-07 05:19:10 51°19.99 2°36.881 13.4475 4.047626 33.969141 29.894306
2006-06-07 05:19:12 51°19.99 2°36.88 13.4489 4.047309 33.967552 29.894306
2006-06-07 05:19:19 51°19.989 2°36.878 13.4511 4.047415 33.969226 29.928016
2006-06-07 05:19:24 51°19.989 2°36.877 13.4484 4.047415 33.969226 29.928016
2006-06-07 05:19:28 51°19.989 2°36.876 13.4484 4.047626 33.971201 29.894306
2006-06-07 05:19:35 51°19.988 2°36.874 13.4459 4.047415 33.969226 29.894306
2006-06-07 05:19:39 51°19.988 2°36.873 13.4466 4.047626 33.970514 29.894306
2006-06-07 05:19:44 51°19.987 2°36.871 13.4496 4.047626 33.969827 29.894306
2006-06-07 05:19:49 51°19.987 2°36.87 13.4462 4.047731 33.971502 29.894306
2006-06-07 05:19:55 51°19.986 2°36.868 13.4474 4.047731 33.971502 29.894306
2006-06-07 05:19:59 51°19.986 2°36.867 13.4427 4.047942 33.973477 29.928016
2006-06-07 05:20:05 51°19.985 2°36.866 13.4445 4.048153 33.975451 29.928016
2006-06-07 05:20:09 51°19.985 2°36.864 13.4478 4.047731 33.972875 29.894306
2006-06-07 05:20:12 51°19.985 2°36.864 13.4483 4.047836 33.974549 29.894306
2006-06-07 05:20:19 51°19.984 2°36.862 13.4412 4.047626 33.973261 29.894306
2006-06-07 05:20:24 51°19.984 2°36.86 13.4424 4.047626 33.973261 29.894306
2006-06-07 05:20:28 51°19.983 2°36.859 13.4368 4.047836 33.974549 29.928016
2006-06-07 05:20:33 51°19.983 2°36.858 13.4396 4.047836 33.974549 29.894306
2006-06-07 05:20:40 51°19.982 2°36.855 13.4347 4.048047 33.976525 29.928016
2006-06-07 05:20:45 51°19.982 2°36.854 13.4336 4.048153 33.977512 29.928016
2006-06-07 05:20:49 51°19.981 2°36.853 13.431 4.048469 33.981162 29.928016
2006-06-07 05:20:55 51°19.98 2°36.852 13.4301 4.048469 33.981162 29.928016
2006-06-07 05:20:59 51°19.98 2°36.85 13.4274 4.048785 33.984811 29.894306
2006-06-07 05:21:05 51°19.979 2°36.849 13.4399 4.04889 33.987173 29.928016
2006-06-07 05:21:09 51°19.979 2°36.848 13.4424 4.048996 33.99091 29.928016
2006-06-07 05:21:12 51°19.979 2°36.847 13.432 4.049101 33.993272 29.928016
2006-06-07 05:21:19 51°19.978 2°36.845 13.4286 4.049207 33.996322 29.995435
2006-06-07 05:21:25 51°19.977 2°36.843 13.4288 4.049207 33.996322 29.995435
2006-06-07 05:21:28 51°19.977 2°36.842 13.4308 4.049207 33.998385 29.961725
2006-06-07 05:21:35 51°19.976 2°36.84 13.426 4.049312 34.000748 29.961725
2006-06-07 05:21:40 51°19.976 2°36.839 13.4245 4.049312 33.999373 29.995435
2006-06-07 05:21:45 51°19.976 2°36.838 13.4227 4.049839 34.00225 29.961725
2006-06-07 05:21:49 51°19.976 2°36.837 13.4218 4.049628 34.002337 29.961725
2006-06-07 05:21:55 51°19.976 2°36.836 13.4242 4.049628 34.002337 29.961725
2006-06-07 05:21:59 51°19.976 2°36.836 13.4151 4.049523 34.0041 29.961725
2006-06-07 05:22:04 51°19.976 2°36.835 13.4173 4.05005 34.008352 29.961725
2006-06-07 05:22:09 51°19.977 2°36.835 13.421 4.049734 34.007451 29.961725
2006-06-07 05:22:15 51°19.978 2°36.835 13.4196 4.049945 34.012867 29.961725
2006-06-07 05:22:19 51°19.979 2°36.835 13.4201 4.05005 34.014544 29.961725
2006-06-07 05:22:24 51°19.98 2°36.835 13.4229 4.05005 34.014544 29.961725
2006-06-07 05:22:29 51°19.981 2°36.836 13.4169 4.049839 34.013943 29.961725
2006-06-07 05:22:35 51°19.982 2°36.837 13.4128 4.05005 34.017296 29.961725
2006-06-07 05:22:39 51°19.983 2°36.838 13.4134 4.050156 34.019661 29.995435
2006-06-07 05:22:45 51°19.984 2°36.84 13.4138 4.050261 34.021338 29.961725
2006-06-07 05:22:49 51°19.985 2°36.842 13.4178 4.050366 34.021638 29.995435
2006-06-07 05:22:55 51°19.986 2°36.844 13.416 4.050366 34.021638 29.995435
2006-06-07 05:23:00 51°19.986 2°36.846 13.4197 4.050577 34.022926 29.995435
2006-06-07 05:23:05 51°19.987 2°36.849 13.4263 4.050472 34.022626 29.995435
2006-06-07 05:23:08 51°19.987 2°36.851 13.4368 4.050788 34.025591 29.995435
2006-06-07 05:23:15 51°19.987 2°36.856 13.4294 4.050472 34.024691 29.995435
2006-06-07 05:23:19 51°19.987 2°36.858 13.4249 4.050893 34.028645 29.995435
2006-06-07 05:23:25 51°19.987 2°36.863 13.4274 4.050893 34.028645 29.995435
2006-06-07 05:23:29 51°19.987 2°36.866 13.4269 4.050999 34.028945 30.029144
2006-06-07 05:23:35 51°19.986 2°36.871 13.4326 4.050788 34.02628 30.062853
2006-06-07 05:23:40 51°19.985 2°36.876 13.4288 4.050261 34.018585 30.096563
2006-06-07 05:23:45 51°19.984 2°36.88 13.4264 4.050472 34.015056 30.062853
2006-06-07 05:23:48 51°19.984 2°36.883 13.4286 4.049945 34.010115 30.062853
2006-06-07 05:23:55 51°19.982 2°36.89 13.4284 4.049945 34.010115 30.062853
2006-06-07 05:23:59 51°19.982 2°36.895 13.4375 4.049628 34.006463 30.062853
2006-06-07 05:24:04 51°19.98 2°36.9 13.427 4.04868 33.998947 30.096563
2006-06-07 05:24:09 51°19.979 2°36.906 13.4301 4.04868 33.996883 30.062853